<?xml version="1.0" encoding="UTF-8" standalone="no" ?>
<gpx xmlns="http://www.topografix.com/GPX/1/1" xmlns:xsi="http://www.w3.org/2001/XMLSchema-instance" xsi:schemaLocation="http://www.topografix.com/GPX/1/1 http://www.topografix.com/GPX/1/1/gpx.xsd" version="1.1" creator="VisuGPX - https://www.visugpx.com">
  <metadata>
    <name>Gigors Roche st Supière</name>
  </metadata>
  <trk>
    <name><![CDATA[2021-11-17 15:41:02]]></name>
    <trkseg>
      <trkpt lat="44.79396" lon="5.10806">
        <ele>589.43</ele>
        <time>2021-11-17T08:39:59Z</time>
      </trkpt>
      <trkpt lat="44.79396" lon="5.10807">
        <ele>589.43</ele>
        <time>2021-11-17T08:40:00Z</time>
      </trkpt>
      <trkpt lat="44.79396" lon="5.10807">
        <ele>590.39</ele>
        <time>2021-11-17T08:40:30Z</time>
      </trkpt>
      <trkpt lat="44.79396" lon="5.10805">
        <ele>589.91</ele>
        <time>2021-11-17T08:41:08Z</time>
      </trkpt>
      <trkpt lat="44.79397" lon="5.10804">
        <ele>589.91</ele>
        <time>2021-11-17T08:41:36Z</time>
      </trkpt>
      <trkpt lat="44.79395" lon="5.10809">
        <ele>589.91</ele>
        <time>2021-11-17T08:41:58Z</time>
      </trkpt>
      <trkpt lat="44.79398" lon="5.10816">
        <ele>589.91</ele>
        <time>2021-11-17T08:42:12Z</time>
      </trkpt>
      <trkpt lat="44.79398" lon="5.10817">
        <ele>589.91</ele>
        <time>2021-11-17T08:42:34Z</time>
      </trkpt>
      <trkpt lat="44.79399" lon="5.10815">
        <ele>589.91</ele>
        <time>2021-11-17T08:42:56Z</time>
      </trkpt>
      <trkpt lat="44.79398" lon="5.10815">
        <ele>589.91</ele>
        <time>2021-11-17T08:43:17Z</time>
      </trkpt>
      <trkpt lat="44.79398" lon="5.10815">
        <ele>589.91</ele>
        <time>2021-11-17T08:43:45Z</time>
      </trkpt>
      <trkpt lat="44.79398" lon="5.10816">
        <ele>589.91</ele>
        <time>2021-11-17T08:44:21Z</time>
      </trkpt>
      <trkpt lat="44.79397" lon="5.10815">
        <ele>589.91</ele>
        <time>2021-11-17T08:44:36Z</time>
      </trkpt>
      <trkpt lat="44.79395" lon="5.10816">
        <ele>589.91</ele>
        <time>2021-11-17T08:44:53Z</time>
      </trkpt>
      <trkpt lat="44.79395" lon="5.10815">
        <ele>589.43</ele>
        <time>2021-11-17T08:45:14Z</time>
      </trkpt>
      <trkpt lat="44.79394" lon="5.10815">
        <ele>589.43</ele>
        <time>2021-11-17T08:45:36Z</time>
      </trkpt>
      <trkpt lat="44.7939" lon="5.1081">
        <ele>588.46</ele>
        <time>2021-11-17T08:45:48Z</time>
      </trkpt>
      <trkpt lat="44.79388" lon="5.10807">
        <ele>588.46</ele>
        <time>2021-11-17T08:45:50Z</time>
      </trkpt>
      <trkpt lat="44.79385" lon="5.10802">
        <ele>588.46</ele>
        <time>2021-11-17T08:45:57Z</time>
      </trkpt>
      <trkpt lat="44.79384" lon="5.10801">
        <ele>587.98</ele>
        <time>2021-11-17T08:45:58Z</time>
      </trkpt>
      <trkpt lat="44.79382" lon="5.10797">
        <ele>587.98</ele>
        <time>2021-11-17T08:46:02Z</time>
      </trkpt>
      <trkpt lat="44.79369" lon="5.10783">
        <ele>587.02</ele>
        <time>2021-11-17T08:46:20Z</time>
      </trkpt>
      <trkpt lat="44.79355" lon="5.1076">
        <ele>586.54</ele>
        <time>2021-11-17T08:46:39Z</time>
      </trkpt>
      <trkpt lat="44.79342" lon="5.10738">
        <ele>587.98</ele>
        <time>2021-11-17T08:46:59Z</time>
      </trkpt>
      <trkpt lat="44.79337" lon="5.10726">
        <ele>588.95</ele>
        <time>2021-11-17T08:47:16Z</time>
      </trkpt>
      <trkpt lat="44.79335" lon="5.10723">
        <ele>588.95</ele>
        <time>2021-11-17T08:47:25Z</time>
      </trkpt>
      <trkpt lat="44.79334" lon="5.10721">
        <ele>588.95</ele>
        <time>2021-11-17T08:47:26Z</time>
      </trkpt>
      <trkpt lat="44.79334" lon="5.1072">
        <ele>588.95</ele>
        <time>2021-11-17T08:47:27Z</time>
      </trkpt>
      <trkpt lat="44.79323" lon="5.10705">
        <ele>589.43</ele>
        <time>2021-11-17T08:47:43Z</time>
      </trkpt>
      <trkpt lat="44.79311" lon="5.10689">
        <ele>589.91</ele>
        <time>2021-11-17T08:47:59Z</time>
      </trkpt>
      <trkpt lat="44.793" lon="5.10669">
        <ele>589.91</ele>
        <time>2021-11-17T08:48:17Z</time>
      </trkpt>
      <trkpt lat="44.79285" lon="5.10644">
        <ele>590.39</ele>
        <time>2021-11-17T08:48:38Z</time>
      </trkpt>
      <trkpt lat="44.79269" lon="5.10627">
        <ele>589.91</ele>
        <time>2021-11-17T08:48:55Z</time>
      </trkpt>
      <trkpt lat="44.79247" lon="5.10608">
        <ele>589.43</ele>
        <time>2021-11-17T08:49:16Z</time>
      </trkpt>
      <trkpt lat="44.79244" lon="5.1059">
        <ele>588.46</ele>
        <time>2021-11-17T08:49:30Z</time>
      </trkpt>
      <trkpt lat="44.79244" lon="5.10589">
        <ele>588.46</ele>
        <time>2021-11-17T08:49:31Z</time>
      </trkpt>
      <trkpt lat="44.79251" lon="5.10575">
        <ele>589.43</ele>
        <time>2021-11-17T08:49:45Z</time>
      </trkpt>
      <trkpt lat="44.79252" lon="5.10573">
        <ele>589.43</ele>
        <time>2021-11-17T08:49:47Z</time>
      </trkpt>
      <trkpt lat="44.79255" lon="5.1055">
        <ele>587.98</ele>
        <time>2021-11-17T08:50:04Z</time>
      </trkpt>
      <trkpt lat="44.79255" lon="5.10532">
        <ele>587.02</ele>
        <time>2021-11-17T08:50:17Z</time>
      </trkpt>
      <trkpt lat="44.79254" lon="5.10503">
        <ele>584.62</ele>
        <time>2021-11-17T08:50:37Z</time>
      </trkpt>
      <trkpt lat="44.79251" lon="5.10477">
        <ele>581.73</ele>
        <time>2021-11-17T08:50:56Z</time>
      </trkpt>
      <trkpt lat="44.79249" lon="5.10448">
        <ele>579.81</ele>
        <time>2021-11-17T08:51:14Z</time>
      </trkpt>
      <trkpt lat="44.79253" lon="5.10434">
        <ele>579.33</ele>
        <time>2021-11-17T08:51:27Z</time>
      </trkpt>
      <trkpt lat="44.79254" lon="5.10433">
        <ele>579.33</ele>
        <time>2021-11-17T08:51:28Z</time>
      </trkpt>
      <trkpt lat="44.79255" lon="5.10431">
        <ele>579.33</ele>
        <time>2021-11-17T08:51:29Z</time>
      </trkpt>
      <trkpt lat="44.79265" lon="5.10412">
        <ele>578.85</ele>
        <time>2021-11-17T08:51:46Z</time>
      </trkpt>
      <trkpt lat="44.79282" lon="5.10389">
        <ele>579.81</ele>
        <time>2021-11-17T08:52:11Z</time>
      </trkpt>
      <trkpt lat="44.79293" lon="5.10369">
        <ele>579.81</ele>
        <time>2021-11-17T08:52:29Z</time>
      </trkpt>
      <trkpt lat="44.79304" lon="5.10351">
        <ele>579.81</ele>
        <time>2021-11-17T08:52:45Z</time>
      </trkpt>
      <trkpt lat="44.79316" lon="5.10324">
        <ele>580.29</ele>
        <time>2021-11-17T08:53:07Z</time>
      </trkpt>
      <trkpt lat="44.79327" lon="5.10296">
        <ele>582.22</ele>
        <time>2021-11-17T08:53:32Z</time>
      </trkpt>
      <trkpt lat="44.79333" lon="5.10262">
        <ele>585.1</ele>
        <time>2021-11-17T08:53:58Z</time>
      </trkpt>
      <trkpt lat="44.79335" lon="5.10239">
        <ele>587.5</ele>
        <time>2021-11-17T08:54:18Z</time>
      </trkpt>
      <trkpt lat="44.79334" lon="5.10212">
        <ele>589.91</ele>
        <time>2021-11-17T08:54:41Z</time>
      </trkpt>
      <trkpt lat="44.79344" lon="5.10187">
        <ele>592.31</ele>
        <time>2021-11-17T08:55:06Z</time>
      </trkpt>
      <trkpt lat="44.79351" lon="5.10186">
        <ele>592.31</ele>
        <time>2021-11-17T08:55:13Z</time>
      </trkpt>
      <trkpt lat="44.79369" lon="5.10178">
        <ele>591.83</ele>
        <time>2021-11-17T08:55:32Z</time>
      </trkpt>
      <trkpt lat="44.79386" lon="5.10174">
        <ele>590.39</ele>
        <time>2021-11-17T08:55:51Z</time>
      </trkpt>
      <trkpt lat="44.79388" lon="5.10176">
        <ele>588.95</ele>
        <time>2021-11-17T08:56:13Z</time>
      </trkpt>
      <trkpt lat="44.79385" lon="5.10177">
        <ele>589.43</ele>
        <time>2021-11-17T08:56:38Z</time>
      </trkpt>
      <trkpt lat="44.79395" lon="5.10169">
        <ele>589.91</ele>
        <time>2021-11-17T08:56:56Z</time>
      </trkpt>
      <trkpt lat="44.7942" lon="5.1015">
        <ele>588.95</ele>
        <time>2021-11-17T08:57:14Z</time>
      </trkpt>
      <trkpt lat="44.79442" lon="5.10125">
        <ele>586.06</ele>
        <time>2021-11-17T08:57:30Z</time>
      </trkpt>
      <trkpt lat="44.79458" lon="5.10103">
        <ele>583.66</ele>
        <time>2021-11-17T08:57:46Z</time>
      </trkpt>
      <trkpt lat="44.79463" lon="5.10097">
        <ele>582.7</ele>
        <time>2021-11-17T08:58:05Z</time>
      </trkpt>
      <trkpt lat="44.79466" lon="5.10096">
        <ele>582.22</ele>
        <time>2021-11-17T08:58:35Z</time>
      </trkpt>
      <trkpt lat="44.79471" lon="5.1009">
        <ele>581.73</ele>
        <time>2021-11-17T08:58:53Z</time>
      </trkpt>
      <trkpt lat="44.79475" lon="5.10085">
        <ele>580.77</ele>
        <time>2021-11-17T08:59:00Z</time>
      </trkpt>
      <trkpt lat="44.79479" lon="5.10081">
        <ele>579.81</ele>
        <time>2021-11-17T08:59:17Z</time>
      </trkpt>
      <trkpt lat="44.79485" lon="5.10072">
        <ele>579.33</ele>
        <time>2021-11-17T08:59:31Z</time>
      </trkpt>
      <trkpt lat="44.79489" lon="5.10067">
        <ele>578.37</ele>
        <time>2021-11-17T08:59:44Z</time>
      </trkpt>
      <trkpt lat="44.7949" lon="5.10066">
        <ele>578.37</ele>
        <time>2021-11-17T08:59:45Z</time>
      </trkpt>
      <trkpt lat="44.79491" lon="5.10065">
        <ele>578.37</ele>
        <time>2021-11-17T08:59:46Z</time>
      </trkpt>
      <trkpt lat="44.79492" lon="5.10064">
        <ele>577.89</ele>
        <time>2021-11-17T08:59:47Z</time>
      </trkpt>
      <trkpt lat="44.79493" lon="5.10063">
        <ele>577.89</ele>
        <time>2021-11-17T08:59:48Z</time>
      </trkpt>
      <trkpt lat="44.79512" lon="5.1006">
        <ele>575.97</ele>
        <time>2021-11-17T09:00:05Z</time>
      </trkpt>
      <trkpt lat="44.7953" lon="5.10062">
        <ele>573.56</ele>
        <time>2021-11-17T09:00:21Z</time>
      </trkpt>
      <trkpt lat="44.79553" lon="5.10064">
        <ele>571.16</ele>
        <time>2021-11-17T09:00:40Z</time>
      </trkpt>
      <trkpt lat="44.79579" lon="5.10067">
        <ele>569.24</ele>
        <time>2021-11-17T09:01:00Z</time>
      </trkpt>
      <trkpt lat="44.79606" lon="5.1007">
        <ele>568.28</ele>
        <time>2021-11-17T09:01:21Z</time>
      </trkpt>
      <trkpt lat="44.79627" lon="5.10072">
        <ele>566.83</ele>
        <time>2021-11-17T09:01:38Z</time>
      </trkpt>
      <trkpt lat="44.79649" lon="5.10074">
        <ele>566.35</ele>
        <time>2021-11-17T09:01:56Z</time>
      </trkpt>
      <trkpt lat="44.79665" lon="5.10075">
        <ele>562.99</ele>
        <time>2021-11-17T09:02:08Z</time>
      </trkpt>
      <trkpt lat="44.79682" lon="5.1006">
        <ele>562.51</ele>
        <time>2021-11-17T09:02:27Z</time>
      </trkpt>
      <trkpt lat="44.7969" lon="5.10045">
        <ele>559.62</ele>
        <time>2021-11-17T09:02:40Z</time>
      </trkpt>
      <trkpt lat="44.79701" lon="5.10037">
        <ele>556.26</ele>
        <time>2021-11-17T09:02:52Z</time>
      </trkpt>
      <trkpt lat="44.79724" lon="5.10037">
        <ele>554.34</ele>
        <time>2021-11-17T09:03:12Z</time>
      </trkpt>
      <trkpt lat="44.79747" lon="5.10036">
        <ele>552.41</ele>
        <time>2021-11-17T09:03:32Z</time>
      </trkpt>
      <trkpt lat="44.7977" lon="5.10038">
        <ele>550.01</ele>
        <time>2021-11-17T09:03:52Z</time>
      </trkpt>
      <trkpt lat="44.79789" lon="5.10041">
        <ele>548.57</ele>
        <time>2021-11-17T09:04:11Z</time>
      </trkpt>
      <trkpt lat="44.7979" lon="5.10043">
        <ele>548.57</ele>
        <time>2021-11-17T09:04:13Z</time>
      </trkpt>
      <trkpt lat="44.79801" lon="5.10052">
        <ele>546.17</ele>
        <time>2021-11-17T09:04:26Z</time>
      </trkpt>
      <trkpt lat="44.79803" lon="5.10055">
        <ele>545.69</ele>
        <time>2021-11-17T09:04:29Z</time>
      </trkpt>
      <trkpt lat="44.79812" lon="5.10062">
        <ele>543.76</ele>
        <time>2021-11-17T09:04:43Z</time>
      </trkpt>
      <trkpt lat="44.79826" lon="5.10057">
        <ele>540.88</ele>
        <time>2021-11-17T09:04:59Z</time>
      </trkpt>
      <trkpt lat="44.79829" lon="5.10057">
        <ele>538.96</ele>
        <time>2021-11-17T09:05:17Z</time>
      </trkpt>
      <trkpt lat="44.7983" lon="5.10058">
        <ele>538.96</ele>
        <time>2021-11-17T09:05:46Z</time>
      </trkpt>
      <trkpt lat="44.7983" lon="5.10058">
        <ele>537.51</ele>
        <time>2021-11-17T09:06:10Z</time>
      </trkpt>
      <trkpt lat="44.7983" lon="5.10058">
        <ele>538.48</ele>
        <time>2021-11-17T09:06:42Z</time>
      </trkpt>
      <trkpt lat="44.7983" lon="5.10056">
        <ele>537.99</ele>
        <time>2021-11-17T09:07:09Z</time>
      </trkpt>
      <trkpt lat="44.79839" lon="5.10057">
        <ele>537.99</ele>
        <time>2021-11-17T09:07:30Z</time>
      </trkpt>
      <trkpt lat="44.79853" lon="5.10061">
        <ele>535.11</ele>
        <time>2021-11-17T09:07:53Z</time>
      </trkpt>
      <trkpt lat="44.79869" lon="5.10079">
        <ele>532.23</ele>
        <time>2021-11-17T09:08:18Z</time>
      </trkpt>
      <trkpt lat="44.79875" lon="5.10081">
        <ele>531.27</ele>
        <time>2021-11-17T09:08:23Z</time>
      </trkpt>
      <trkpt lat="44.79892" lon="5.10085">
        <ele>529.82</ele>
        <time>2021-11-17T09:08:37Z</time>
      </trkpt>
      <trkpt lat="44.79909" lon="5.10093">
        <ele>529.82</ele>
        <time>2021-11-17T09:08:59Z</time>
      </trkpt>
      <trkpt lat="44.7992" lon="5.10089">
        <ele>526.94</ele>
        <time>2021-11-17T09:09:10Z</time>
      </trkpt>
      <trkpt lat="44.79925" lon="5.10087">
        <ele>525.98</ele>
        <time>2021-11-17T09:09:15Z</time>
      </trkpt>
      <trkpt lat="44.7994" lon="5.10087">
        <ele>523.58</ele>
        <time>2021-11-17T09:09:34Z</time>
      </trkpt>
      <trkpt lat="44.79944" lon="5.10077">
        <ele>521.17</ele>
        <time>2021-11-17T09:09:49Z</time>
      </trkpt>
      <trkpt lat="44.79947" lon="5.10066">
        <ele>517.81</ele>
        <time>2021-11-17T09:10:02Z</time>
      </trkpt>
      <trkpt lat="44.79958" lon="5.10066">
        <ele>516.85</ele>
        <time>2021-11-17T09:10:14Z</time>
      </trkpt>
      <trkpt lat="44.79959" lon="5.10066">
        <ele>516.37</ele>
        <time>2021-11-17T09:10:15Z</time>
      </trkpt>
      <trkpt lat="44.79978" lon="5.10068">
        <ele>514.92</ele>
        <time>2021-11-17T09:10:32Z</time>
      </trkpt>
      <trkpt lat="44.79997" lon="5.10066">
        <ele>513</ele>
        <time>2021-11-17T09:10:49Z</time>
      </trkpt>
      <trkpt lat="44.80017" lon="5.10056">
        <ele>511.08</ele>
        <time>2021-11-17T09:11:06Z</time>
      </trkpt>
      <trkpt lat="44.80035" lon="5.10049">
        <ele>509.64</ele>
        <time>2021-11-17T09:11:23Z</time>
      </trkpt>
      <trkpt lat="44.80057" lon="5.10044">
        <ele>506.75</ele>
        <time>2021-11-17T09:11:44Z</time>
      </trkpt>
      <trkpt lat="44.80075" lon="5.10046">
        <ele>504.83</ele>
        <time>2021-11-17T09:11:59Z</time>
      </trkpt>
      <trkpt lat="44.80086" lon="5.10044">
        <ele>503.39</ele>
        <time>2021-11-17T09:12:20Z</time>
      </trkpt>
      <trkpt lat="44.80083" lon="5.10046">
        <ele>503.39</ele>
        <time>2021-11-17T09:12:57Z</time>
      </trkpt>
      <trkpt lat="44.80079" lon="5.10035">
        <ele>502.91</ele>
        <time>2021-11-17T09:13:07Z</time>
      </trkpt>
      <trkpt lat="44.80079" lon="5.10033">
        <ele>502.43</ele>
        <time>2021-11-17T09:13:08Z</time>
      </trkpt>
      <trkpt lat="44.80078" lon="5.1003">
        <ele>501.95</ele>
        <time>2021-11-17T09:13:10Z</time>
      </trkpt>
      <trkpt lat="44.80075" lon="5.10026">
        <ele>500.98</ele>
        <time>2021-11-17T09:13:14Z</time>
      </trkpt>
      <trkpt lat="44.80075" lon="5.10025">
        <ele>500.98</ele>
        <time>2021-11-17T09:13:15Z</time>
      </trkpt>
      <trkpt lat="44.80074" lon="5.10023">
        <ele>500.98</ele>
        <time>2021-11-17T09:13:16Z</time>
      </trkpt>
      <trkpt lat="44.80073" lon="5.10022">
        <ele>500.5</ele>
        <time>2021-11-17T09:13:17Z</time>
      </trkpt>
      <trkpt lat="44.80067" lon="5.10007">
        <ele>497.62</ele>
        <time>2021-11-17T09:13:27Z</time>
      </trkpt>
      <trkpt lat="44.80056" lon="5.09993">
        <ele>494.74</ele>
        <time>2021-11-17T09:13:38Z</time>
      </trkpt>
      <trkpt lat="44.80049" lon="5.0998">
        <ele>491.85</ele>
        <time>2021-11-17T09:13:46Z</time>
      </trkpt>
      <trkpt lat="44.80042" lon="5.0996">
        <ele>488.97</ele>
        <time>2021-11-17T09:13:58Z</time>
      </trkpt>
      <trkpt lat="44.80039" lon="5.09931">
        <ele>485.6</ele>
        <time>2021-11-17T09:14:13Z</time>
      </trkpt>
      <trkpt lat="44.80036" lon="5.09901">
        <ele>482.72</ele>
        <time>2021-11-17T09:14:30Z</time>
      </trkpt>
      <trkpt lat="44.80034" lon="5.09872">
        <ele>479.84</ele>
        <time>2021-11-17T09:14:46Z</time>
      </trkpt>
      <trkpt lat="44.80027" lon="5.09838">
        <ele>476.47</ele>
        <time>2021-11-17T09:15:05Z</time>
      </trkpt>
      <trkpt lat="44.80013" lon="5.09825">
        <ele>473.59</ele>
        <time>2021-11-17T09:15:20Z</time>
      </trkpt>
      <trkpt lat="44.80008" lon="5.09814">
        <ele>471.66</ele>
        <time>2021-11-17T09:15:30Z</time>
      </trkpt>
      <trkpt lat="44.80004" lon="5.0979">
        <ele>468.3</ele>
        <time>2021-11-17T09:15:45Z</time>
      </trkpt>
      <trkpt lat="44.79999" lon="5.09763">
        <ele>465.42</ele>
        <time>2021-11-17T09:16:02Z</time>
      </trkpt>
      <trkpt lat="44.79993" lon="5.09731">
        <ele>463.01</ele>
        <time>2021-11-17T09:16:21Z</time>
      </trkpt>
      <trkpt lat="44.7999" lon="5.09695">
        <ele>460.61</ele>
        <time>2021-11-17T09:16:43Z</time>
      </trkpt>
      <trkpt lat="44.79977" lon="5.09667">
        <ele>458.21</ele>
        <time>2021-11-17T09:17:02Z</time>
      </trkpt>
      <trkpt lat="44.79962" lon="5.09644">
        <ele>455.8</ele>
        <time>2021-11-17T09:17:21Z</time>
      </trkpt>
      <trkpt lat="44.79957" lon="5.0961">
        <ele>454.36</ele>
        <time>2021-11-17T09:17:40Z</time>
      </trkpt>
      <trkpt lat="44.79954" lon="5.09579">
        <ele>452.44</ele>
        <time>2021-11-17T09:17:59Z</time>
      </trkpt>
      <trkpt lat="44.79952" lon="5.09554">
        <ele>451.96</ele>
        <time>2021-11-17T09:18:17Z</time>
      </trkpt>
      <trkpt lat="44.79943" lon="5.0953">
        <ele>451.48</ele>
        <time>2021-11-17T09:18:35Z</time>
      </trkpt>
      <trkpt lat="44.79937" lon="5.09517">
        <ele>451</ele>
        <time>2021-11-17T09:18:48Z</time>
      </trkpt>
      <trkpt lat="44.79935" lon="5.09513">
        <ele>450.52</ele>
        <time>2021-11-17T09:18:51Z</time>
      </trkpt>
      <trkpt lat="44.79924" lon="5.09489">
        <ele>449.55</ele>
        <time>2021-11-17T09:19:08Z</time>
      </trkpt>
      <trkpt lat="44.79914" lon="5.09473">
        <ele>448.59</ele>
        <time>2021-11-17T09:19:24Z</time>
      </trkpt>
      <trkpt lat="44.79913" lon="5.09471">
        <ele>448.11</ele>
        <time>2021-11-17T09:19:25Z</time>
      </trkpt>
      <trkpt lat="44.79912" lon="5.0947">
        <ele>448.11</ele>
        <time>2021-11-17T09:19:26Z</time>
      </trkpt>
      <trkpt lat="44.79901" lon="5.0945">
        <ele>446.67</ele>
        <time>2021-11-17T09:19:44Z</time>
      </trkpt>
      <trkpt lat="44.7989" lon="5.09432">
        <ele>445.71</ele>
        <time>2021-11-17T09:20:02Z</time>
      </trkpt>
      <trkpt lat="44.79878" lon="5.09411">
        <ele>444.27</ele>
        <time>2021-11-17T09:20:22Z</time>
      </trkpt>
      <trkpt lat="44.79867" lon="5.09388">
        <ele>441.86</ele>
        <time>2021-11-17T09:20:39Z</time>
      </trkpt>
      <trkpt lat="44.79855" lon="5.09365">
        <ele>440.42</ele>
        <time>2021-11-17T09:20:58Z</time>
      </trkpt>
      <trkpt lat="44.79844" lon="5.09341">
        <ele>439.94</ele>
        <time>2021-11-17T09:21:16Z</time>
      </trkpt>
      <trkpt lat="44.79829" lon="5.09325">
        <ele>438.5</ele>
        <time>2021-11-17T09:21:33Z</time>
      </trkpt>
      <trkpt lat="44.7981" lon="5.09313">
        <ele>436.1</ele>
        <time>2021-11-17T09:21:52Z</time>
      </trkpt>
      <trkpt lat="44.79806" lon="5.09313">
        <ele>435.61</ele>
        <time>2021-11-17T09:21:56Z</time>
      </trkpt>
      <trkpt lat="44.79784" lon="5.09324">
        <ele>433.21</ele>
        <time>2021-11-17T09:22:17Z</time>
      </trkpt>
      <trkpt lat="44.79761" lon="5.09334">
        <ele>431.77</ele>
        <time>2021-11-17T09:22:38Z</time>
      </trkpt>
      <trkpt lat="44.7974" lon="5.09344">
        <ele>430.81</ele>
        <time>2021-11-17T09:22:58Z</time>
      </trkpt>
      <trkpt lat="44.79724" lon="5.09338">
        <ele>430.33</ele>
        <time>2021-11-17T09:23:17Z</time>
      </trkpt>
      <trkpt lat="44.79723" lon="5.09334">
        <ele>430.33</ele>
        <time>2021-11-17T09:23:20Z</time>
      </trkpt>
      <trkpt lat="44.79723" lon="5.09332">
        <ele>430.33</ele>
        <time>2021-11-17T09:23:21Z</time>
      </trkpt>
      <trkpt lat="44.79724" lon="5.09325">
        <ele>430.33</ele>
        <time>2021-11-17T09:23:26Z</time>
      </trkpt>
      <trkpt lat="44.79738" lon="5.093">
        <ele>429.37</ele>
        <time>2021-11-17T09:23:48Z</time>
      </trkpt>
      <trkpt lat="44.79748" lon="5.09281">
        <ele>429.37</ele>
        <time>2021-11-17T09:24:07Z</time>
      </trkpt>
      <trkpt lat="44.79749" lon="5.09279">
        <ele>429.37</ele>
        <time>2021-11-17T09:24:09Z</time>
      </trkpt>
      <trkpt lat="44.7975" lon="5.09278">
        <ele>429.37</ele>
        <time>2021-11-17T09:24:10Z</time>
      </trkpt>
      <trkpt lat="44.7975" lon="5.09277">
        <ele>429.37</ele>
        <time>2021-11-17T09:24:11Z</time>
      </trkpt>
      <trkpt lat="44.7976" lon="5.09258">
        <ele>429.37</ele>
        <time>2021-11-17T09:24:30Z</time>
      </trkpt>
      <trkpt lat="44.79758" lon="5.09239">
        <ele>429.85</ele>
        <time>2021-11-17T09:24:47Z</time>
      </trkpt>
      <trkpt lat="44.79743" lon="5.09218">
        <ele>428.89</ele>
        <time>2021-11-17T09:25:07Z</time>
      </trkpt>
      <trkpt lat="44.79731" lon="5.09198">
        <ele>428.4</ele>
        <time>2021-11-17T09:25:26Z</time>
      </trkpt>
      <trkpt lat="44.79721" lon="5.09176">
        <ele>429.37</ele>
        <time>2021-11-17T09:25:44Z</time>
      </trkpt>
      <trkpt lat="44.79714" lon="5.09156">
        <ele>430.33</ele>
        <time>2021-11-17T09:26:00Z</time>
      </trkpt>
      <trkpt lat="44.79707" lon="5.09137">
        <ele>432.25</ele>
        <time>2021-11-17T09:26:18Z</time>
      </trkpt>
      <trkpt lat="44.797" lon="5.09116">
        <ele>433.69</ele>
        <time>2021-11-17T09:26:34Z</time>
      </trkpt>
      <trkpt lat="44.79693" lon="5.09096">
        <ele>435.61</ele>
        <time>2021-11-17T09:26:52Z</time>
      </trkpt>
      <trkpt lat="44.79691" lon="5.09091">
        <ele>436.1</ele>
        <time>2021-11-17T09:27:09Z</time>
      </trkpt>
      <trkpt lat="44.79688" lon="5.09085">
        <ele>436.58</ele>
        <time>2021-11-17T09:27:22Z</time>
      </trkpt>
      <trkpt lat="44.79688" lon="5.09083">
        <ele>436.58</ele>
        <time>2021-11-17T09:27:25Z</time>
      </trkpt>
      <trkpt lat="44.79687" lon="5.09081">
        <ele>436.58</ele>
        <time>2021-11-17T09:27:26Z</time>
      </trkpt>
      <trkpt lat="44.79687" lon="5.09079">
        <ele>436.58</ele>
        <time>2021-11-17T09:27:28Z</time>
      </trkpt>
      <trkpt lat="44.79681" lon="5.09055">
        <ele>438.02</ele>
        <time>2021-11-17T09:27:47Z</time>
      </trkpt>
      <trkpt lat="44.79681" lon="5.09053">
        <ele>438.5</ele>
        <time>2021-11-17T09:27:49Z</time>
      </trkpt>
      <trkpt lat="44.79677" lon="5.09037">
        <ele>439.46</ele>
        <time>2021-11-17T09:28:05Z</time>
      </trkpt>
      <trkpt lat="44.7967" lon="5.0902">
        <ele>440.42</ele>
        <time>2021-11-17T09:28:24Z</time>
      </trkpt>
      <trkpt lat="44.79663" lon="5.09015">
        <ele>440.9</ele>
        <time>2021-11-17T09:28:42Z</time>
      </trkpt>
      <trkpt lat="44.79652" lon="5.09007">
        <ele>440.42</ele>
        <time>2021-11-17T09:28:57Z</time>
      </trkpt>
      <trkpt lat="44.79636" lon="5.08993">
        <ele>440.9</ele>
        <time>2021-11-17T09:29:15Z</time>
      </trkpt>
      <trkpt lat="44.79622" lon="5.08983">
        <ele>442.34</ele>
        <time>2021-11-17T09:29:32Z</time>
      </trkpt>
      <trkpt lat="44.7961" lon="5.08973">
        <ele>443.31</ele>
        <time>2021-11-17T09:29:50Z</time>
      </trkpt>
      <trkpt lat="44.7959" lon="5.08957">
        <ele>443.79</ele>
        <time>2021-11-17T09:30:12Z</time>
      </trkpt>
      <trkpt lat="44.79579" lon="5.08946">
        <ele>443.31</ele>
        <time>2021-11-17T09:30:27Z</time>
      </trkpt>
      <trkpt lat="44.79569" lon="5.0893">
        <ele>441.86</ele>
        <time>2021-11-17T09:30:43Z</time>
      </trkpt>
      <trkpt lat="44.79573" lon="5.08919">
        <ele>441.86</ele>
        <time>2021-11-17T09:31:00Z</time>
      </trkpt>
      <trkpt lat="44.79586" lon="5.08914">
        <ele>444.27</ele>
        <time>2021-11-17T09:31:18Z</time>
      </trkpt>
      <trkpt lat="44.79595" lon="5.08909">
        <ele>446.19</ele>
        <time>2021-11-17T09:31:35Z</time>
      </trkpt>
      <trkpt lat="44.79595" lon="5.08909">
        <ele>446.67</ele>
        <time>2021-11-17T09:32:09Z</time>
      </trkpt>
      <trkpt lat="44.79595" lon="5.08909">
        <ele>447.15</ele>
        <time>2021-11-17T09:32:53Z</time>
      </trkpt>
      <trkpt lat="44.79598" lon="5.08908">
        <ele>447.15</ele>
        <time>2021-11-17T09:33:13Z</time>
      </trkpt>
      <trkpt lat="44.79606" lon="5.08907">
        <ele>448.11</ele>
        <time>2021-11-17T09:33:31Z</time>
      </trkpt>
      <trkpt lat="44.79606" lon="5.08906">
        <ele>448.11</ele>
        <time>2021-11-17T09:33:52Z</time>
      </trkpt>
      <trkpt lat="44.79607" lon="5.08906">
        <ele>447.63</ele>
        <time>2021-11-17T09:34:20Z</time>
      </trkpt>
      <trkpt lat="44.79616" lon="5.08906">
        <ele>449.07</ele>
        <time>2021-11-17T09:34:44Z</time>
      </trkpt>
      <trkpt lat="44.79635" lon="5.08905">
        <ele>450.03</ele>
        <time>2021-11-17T09:35:06Z</time>
      </trkpt>
      <trkpt lat="44.79653" lon="5.089">
        <ele>451</ele>
        <time>2021-11-17T09:35:25Z</time>
      </trkpt>
      <trkpt lat="44.79663" lon="5.08899">
        <ele>452.44</ele>
        <time>2021-11-17T09:35:42Z</time>
      </trkpt>
      <trkpt lat="44.79682" lon="5.08896">
        <ele>454.36</ele>
        <time>2021-11-17T09:36:02Z</time>
      </trkpt>
      <trkpt lat="44.79706" lon="5.08899">
        <ele>456.76</ele>
        <time>2021-11-17T09:36:30Z</time>
      </trkpt>
      <trkpt lat="44.79712" lon="5.08893">
        <ele>457.72</ele>
        <time>2021-11-17T09:36:39Z</time>
      </trkpt>
      <trkpt lat="44.79719" lon="5.0888">
        <ele>459.17</ele>
        <time>2021-11-17T09:36:56Z</time>
      </trkpt>
      <trkpt lat="44.79722" lon="5.08874">
        <ele>459.17</ele>
        <time>2021-11-17T09:37:01Z</time>
      </trkpt>
      <trkpt lat="44.79731" lon="5.08854">
        <ele>460.61</ele>
        <time>2021-11-17T09:37:17Z</time>
      </trkpt>
      <trkpt lat="44.79733" lon="5.08849">
        <ele>461.09</ele>
        <time>2021-11-17T09:37:22Z</time>
      </trkpt>
      <trkpt lat="44.79737" lon="5.0884">
        <ele>463.01</ele>
        <time>2021-11-17T09:37:34Z</time>
      </trkpt>
      <trkpt lat="44.79741" lon="5.08834">
        <ele>463.49</ele>
        <time>2021-11-17T09:37:49Z</time>
      </trkpt>
      <trkpt lat="44.79741" lon="5.08834">
        <ele>463.49</ele>
        <time>2021-11-17T09:38:08Z</time>
      </trkpt>
      <trkpt lat="44.79745" lon="5.08823">
        <ele>463.97</ele>
        <time>2021-11-17T09:38:28Z</time>
      </trkpt>
      <trkpt lat="44.79754" lon="5.08805">
        <ele>465.42</ele>
        <time>2021-11-17T09:38:43Z</time>
      </trkpt>
      <trkpt lat="44.79755" lon="5.08804">
        <ele>465.42</ele>
        <time>2021-11-17T09:38:44Z</time>
      </trkpt>
      <trkpt lat="44.79766" lon="5.088">
        <ele>467.82</ele>
        <time>2021-11-17T09:39:01Z</time>
      </trkpt>
      <trkpt lat="44.79768" lon="5.08801">
        <ele>467.82</ele>
        <time>2021-11-17T09:39:16Z</time>
      </trkpt>
      <trkpt lat="44.79771" lon="5.08798">
        <ele>467.82</ele>
        <time>2021-11-17T09:39:37Z</time>
      </trkpt>
      <trkpt lat="44.79771" lon="5.08798">
        <ele>468.3</ele>
        <time>2021-11-17T09:40:09Z</time>
      </trkpt>
      <trkpt lat="44.79771" lon="5.08797">
        <ele>469.26</ele>
        <time>2021-11-17T09:40:40Z</time>
      </trkpt>
      <trkpt lat="44.79771" lon="5.08797">
        <ele>469.74</ele>
        <time>2021-11-17T09:41:14Z</time>
      </trkpt>
      <trkpt lat="44.79771" lon="5.08797">
        <ele>469.74</ele>
        <time>2021-11-17T09:41:50Z</time>
      </trkpt>
      <trkpt lat="44.7977" lon="5.08797">
        <ele>467.34</ele>
        <time>2021-11-17T09:42:12Z</time>
      </trkpt>
      <trkpt lat="44.7977" lon="5.08797">
        <ele>470.22</ele>
        <time>2021-11-17T09:42:24Z</time>
      </trkpt>
      <trkpt lat="44.7977" lon="5.08797">
        <ele>471.18</ele>
        <time>2021-11-17T09:42:43Z</time>
      </trkpt>
      <trkpt lat="44.7977" lon="5.08797">
        <ele>469.26</ele>
        <time>2021-11-17T09:43:23Z</time>
      </trkpt>
      <trkpt lat="44.79768" lon="5.08797">
        <ele>468.78</ele>
        <time>2021-11-17T09:43:52Z</time>
      </trkpt>
      <trkpt lat="44.79768" lon="5.08798">
        <ele>468.78</ele>
        <time>2021-11-17T09:44:20Z</time>
      </trkpt>
      <trkpt lat="44.79768" lon="5.08798">
        <ele>465.42</ele>
        <time>2021-11-17T09:44:32Z</time>
      </trkpt>
      <trkpt lat="44.79768" lon="5.08798">
        <ele>464.45</ele>
        <time>2021-11-17T09:44:34Z</time>
      </trkpt>
      <trkpt lat="44.79768" lon="5.08798">
        <ele>467.34</ele>
        <time>2021-11-17T09:44:37Z</time>
      </trkpt>
      <trkpt lat="44.79768" lon="5.08798">
        <ele>467.82</ele>
        <time>2021-11-17T09:44:38Z</time>
      </trkpt>
      <trkpt lat="44.79768" lon="5.08798">
        <ele>470.22</ele>
        <time>2021-11-17T09:44:47Z</time>
      </trkpt>
      <trkpt lat="44.79768" lon="5.08798">
        <ele>467.82</ele>
        <time>2021-11-17T09:45:10Z</time>
      </trkpt>
      <trkpt lat="44.79768" lon="5.08798">
        <ele>467.82</ele>
        <time>2021-11-17T09:45:42Z</time>
      </trkpt>
      <trkpt lat="44.79768" lon="5.08798">
        <ele>468.3</ele>
        <time>2021-11-17T09:46:15Z</time>
      </trkpt>
      <trkpt lat="44.79768" lon="5.08798">
        <ele>468.3</ele>
        <time>2021-11-17T09:46:45Z</time>
      </trkpt>
      <trkpt lat="44.79768" lon="5.08798">
        <ele>468.3</ele>
        <time>2021-11-17T09:47:17Z</time>
      </trkpt>
      <trkpt lat="44.79771" lon="5.08795">
        <ele>468.3</ele>
        <time>2021-11-17T09:47:36Z</time>
      </trkpt>
      <trkpt lat="44.79781" lon="5.08788">
        <ele>468.3</ele>
        <time>2021-11-17T09:47:54Z</time>
      </trkpt>
      <trkpt lat="44.79788" lon="5.08784">
        <ele>468.3</ele>
        <time>2021-11-17T09:48:06Z</time>
      </trkpt>
      <trkpt lat="44.79789" lon="5.08784">
        <ele>471.66</ele>
        <time>2021-11-17T09:48:08Z</time>
      </trkpt>
      <trkpt lat="44.79789" lon="5.08784">
        <ele>472.14</ele>
        <time>2021-11-17T09:48:09Z</time>
      </trkpt>
      <trkpt lat="44.79805" lon="5.08784">
        <ele>473.59</ele>
        <time>2021-11-17T09:48:29Z</time>
      </trkpt>
      <trkpt lat="44.79816" lon="5.08782">
        <ele>475.03</ele>
        <time>2021-11-17T09:48:47Z</time>
      </trkpt>
      <trkpt lat="44.79831" lon="5.08788">
        <ele>477.43</ele>
        <time>2021-11-17T09:49:04Z</time>
      </trkpt>
      <trkpt lat="44.79846" lon="5.08796">
        <ele>480.8</ele>
        <time>2021-11-17T09:49:24Z</time>
      </trkpt>
      <trkpt lat="44.79862" lon="5.08803">
        <ele>483.2</ele>
        <time>2021-11-17T09:49:46Z</time>
      </trkpt>
      <trkpt lat="44.79875" lon="5.08809">
        <ele>485.12</ele>
        <time>2021-11-17T09:50:04Z</time>
      </trkpt>
      <trkpt lat="44.79885" lon="5.08815">
        <ele>487.05</ele>
        <time>2021-11-17T09:50:22Z</time>
      </trkpt>
      <trkpt lat="44.79889" lon="5.08819">
        <ele>487.53</ele>
        <time>2021-11-17T09:50:37Z</time>
      </trkpt>
      <trkpt lat="44.79902" lon="5.08824">
        <ele>489.45</ele>
        <time>2021-11-17T09:50:55Z</time>
      </trkpt>
      <trkpt lat="44.79911" lon="5.08826">
        <ele>491.37</ele>
        <time>2021-11-17T09:51:08Z</time>
      </trkpt>
      <trkpt lat="44.79924" lon="5.0883">
        <ele>493.29</ele>
        <time>2021-11-17T09:51:25Z</time>
      </trkpt>
      <trkpt lat="44.79936" lon="5.08837">
        <ele>495.7</ele>
        <time>2021-11-17T09:51:44Z</time>
      </trkpt>
      <trkpt lat="44.79949" lon="5.08849">
        <ele>498.1</ele>
        <time>2021-11-17T09:52:04Z</time>
      </trkpt>
      <trkpt lat="44.79951" lon="5.08852">
        <ele>499.54</ele>
        <time>2021-11-17T09:52:21Z</time>
      </trkpt>
      <trkpt lat="44.79952" lon="5.08854">
        <ele>500.02</ele>
        <time>2021-11-17T09:52:30Z</time>
      </trkpt>
      <trkpt lat="44.79953" lon="5.08855">
        <ele>500.02</ele>
        <time>2021-11-17T09:52:34Z</time>
      </trkpt>
      <trkpt lat="44.79951" lon="5.08861">
        <ele>499.54</ele>
        <time>2021-11-17T09:52:46Z</time>
      </trkpt>
      <trkpt lat="44.79949" lon="5.08864">
        <ele>499.54</ele>
        <time>2021-11-17T09:52:58Z</time>
      </trkpt>
      <trkpt lat="44.79949" lon="5.0887">
        <ele>499.54</ele>
        <time>2021-11-17T09:53:31Z</time>
      </trkpt>
      <trkpt lat="44.79948" lon="5.08873">
        <ele>499.54</ele>
        <time>2021-11-17T09:54:10Z</time>
      </trkpt>
      <trkpt lat="44.79948" lon="5.08873">
        <ele>499.54</ele>
        <time>2021-11-17T09:54:48Z</time>
      </trkpt>
      <trkpt lat="44.79949" lon="5.08873">
        <ele>499.54</ele>
        <time>2021-11-17T09:55:14Z</time>
      </trkpt>
      <trkpt lat="44.79948" lon="5.0888">
        <ele>499.54</ele>
        <time>2021-11-17T09:55:27Z</time>
      </trkpt>
      <trkpt lat="44.79948" lon="5.08881">
        <ele>499.54</ele>
        <time>2021-11-17T09:55:28Z</time>
      </trkpt>
      <trkpt lat="44.79948" lon="5.08883">
        <ele>499.54</ele>
        <time>2021-11-17T09:55:29Z</time>
      </trkpt>
      <trkpt lat="44.79948" lon="5.08884">
        <ele>499.54</ele>
        <time>2021-11-17T09:55:30Z</time>
      </trkpt>
      <trkpt lat="44.79941" lon="5.08905">
        <ele>500.02</ele>
        <time>2021-11-17T09:55:45Z</time>
      </trkpt>
      <trkpt lat="44.79932" lon="5.08928">
        <ele>500.5</ele>
        <time>2021-11-17T09:56:03Z</time>
      </trkpt>
      <trkpt lat="44.79927" lon="5.08944">
        <ele>501.46</ele>
        <time>2021-11-17T09:56:18Z</time>
      </trkpt>
      <trkpt lat="44.79926" lon="5.08948">
        <ele>501.46</ele>
        <time>2021-11-17T09:56:35Z</time>
      </trkpt>
      <trkpt lat="44.79925" lon="5.08953">
        <ele>501.46</ele>
        <time>2021-11-17T09:56:39Z</time>
      </trkpt>
      <trkpt lat="44.79922" lon="5.08972">
        <ele>501.95</ele>
        <time>2021-11-17T09:56:56Z</time>
      </trkpt>
      <trkpt lat="44.79922" lon="5.08989">
        <ele>503.39</ele>
        <time>2021-11-17T09:57:12Z</time>
      </trkpt>
      <trkpt lat="44.79917" lon="5.08996">
        <ele>504.83</ele>
        <time>2021-11-17T09:57:21Z</time>
      </trkpt>
      <trkpt lat="44.7991" lon="5.0901">
        <ele>507.23</ele>
        <time>2021-11-17T09:57:39Z</time>
      </trkpt>
      <trkpt lat="44.7992" lon="5.09003">
        <ele>509.64</ele>
        <time>2021-11-17T09:57:55Z</time>
      </trkpt>
      <trkpt lat="44.79933" lon="5.08998">
        <ele>512.04</ele>
        <time>2021-11-17T09:58:14Z</time>
      </trkpt>
      <trkpt lat="44.79944" lon="5.08991">
        <ele>513.96</ele>
        <time>2021-11-17T09:58:33Z</time>
      </trkpt>
      <trkpt lat="44.79955" lon="5.08984">
        <ele>516.37</ele>
        <time>2021-11-17T09:58:51Z</time>
      </trkpt>
      <trkpt lat="44.79968" lon="5.08976">
        <ele>518.77</ele>
        <time>2021-11-17T09:59:09Z</time>
      </trkpt>
      <trkpt lat="44.79978" lon="5.08968">
        <ele>521.17</ele>
        <time>2021-11-17T09:59:26Z</time>
      </trkpt>
      <trkpt lat="44.7999" lon="5.08955">
        <ele>523.58</ele>
        <time>2021-11-17T09:59:45Z</time>
      </trkpt>
      <trkpt lat="44.79999" lon="5.08944">
        <ele>525.5</ele>
        <time>2021-11-17T10:00:02Z</time>
      </trkpt>
      <trkpt lat="44.80001" lon="5.08957">
        <ele>527.9</ele>
        <time>2021-11-17T10:00:22Z</time>
      </trkpt>
      <trkpt lat="44.80006" lon="5.08947">
        <ele>529.82</ele>
        <time>2021-11-17T10:00:41Z</time>
      </trkpt>
      <trkpt lat="44.80015" lon="5.08938">
        <ele>531.75</ele>
        <time>2021-11-17T10:01:04Z</time>
      </trkpt>
      <trkpt lat="44.80014" lon="5.0895">
        <ele>533.67</ele>
        <time>2021-11-17T10:01:22Z</time>
      </trkpt>
      <trkpt lat="44.80018" lon="5.08955">
        <ele>535.59</ele>
        <time>2021-11-17T10:01:38Z</time>
      </trkpt>
      <trkpt lat="44.80026" lon="5.08948">
        <ele>537.99</ele>
        <time>2021-11-17T10:01:57Z</time>
      </trkpt>
      <trkpt lat="44.80032" lon="5.08942">
        <ele>540.4</ele>
        <time>2021-11-17T10:02:16Z</time>
      </trkpt>
      <trkpt lat="44.80034" lon="5.08927">
        <ele>542.8</ele>
        <time>2021-11-17T10:02:34Z</time>
      </trkpt>
      <trkpt lat="44.80031" lon="5.08915">
        <ele>545.2</ele>
        <time>2021-11-17T10:02:50Z</time>
      </trkpt>
      <trkpt lat="44.80024" lon="5.08903">
        <ele>547.13</ele>
        <time>2021-11-17T10:03:07Z</time>
      </trkpt>
      <trkpt lat="44.80018" lon="5.08893">
        <ele>550.01</ele>
        <time>2021-11-17T10:03:24Z</time>
      </trkpt>
      <trkpt lat="44.80011" lon="5.08882">
        <ele>551.93</ele>
        <time>2021-11-17T10:03:39Z</time>
      </trkpt>
      <trkpt lat="44.80004" lon="5.08869">
        <ele>553.38</ele>
        <time>2021-11-17T10:03:57Z</time>
      </trkpt>
      <trkpt lat="44.79998" lon="5.08857">
        <ele>555.3</ele>
        <time>2021-11-17T10:04:12Z</time>
      </trkpt>
      <trkpt lat="44.79994" lon="5.08847">
        <ele>556.74</ele>
        <time>2021-11-17T10:04:25Z</time>
      </trkpt>
      <trkpt lat="44.79989" lon="5.08836">
        <ele>558.18</ele>
        <time>2021-11-17T10:04:39Z</time>
      </trkpt>
      <trkpt lat="44.79984" lon="5.08825">
        <ele>560.11</ele>
        <time>2021-11-17T10:04:54Z</time>
      </trkpt>
      <trkpt lat="44.79979" lon="5.08815">
        <ele>561.55</ele>
        <time>2021-11-17T10:05:09Z</time>
      </trkpt>
      <trkpt lat="44.79976" lon="5.08805">
        <ele>562.99</ele>
        <time>2021-11-17T10:05:24Z</time>
      </trkpt>
      <trkpt lat="44.79985" lon="5.08812">
        <ele>564.91</ele>
        <time>2021-11-17T10:05:39Z</time>
      </trkpt>
      <trkpt lat="44.79998" lon="5.0882">
        <ele>566.35</ele>
        <time>2021-11-17T10:06:00Z</time>
      </trkpt>
      <trkpt lat="44.80007" lon="5.08824">
        <ele>567.32</ele>
        <time>2021-11-17T10:06:15Z</time>
      </trkpt>
      <trkpt lat="44.80018" lon="5.08828">
        <ele>569.72</ele>
        <time>2021-11-17T10:06:31Z</time>
      </trkpt>
      <trkpt lat="44.80021" lon="5.0883">
        <ele>571.16</ele>
        <time>2021-11-17T10:06:45Z</time>
      </trkpt>
      <trkpt lat="44.80023" lon="5.0883">
        <ele>570.68</ele>
        <time>2021-11-17T10:06:59Z</time>
      </trkpt>
      <trkpt lat="44.80027" lon="5.08832">
        <ele>571.16</ele>
        <time>2021-11-17T10:07:13Z</time>
      </trkpt>
      <trkpt lat="44.80031" lon="5.08833">
        <ele>572.6</ele>
        <time>2021-11-17T10:07:29Z</time>
      </trkpt>
      <trkpt lat="44.8003" lon="5.08833">
        <ele>573.08</ele>
        <time>2021-11-17T10:08:03Z</time>
      </trkpt>
      <trkpt lat="44.80031" lon="5.08833">
        <ele>572.6</ele>
        <time>2021-11-17T10:08:28Z</time>
      </trkpt>
      <trkpt lat="44.80031" lon="5.08833">
        <ele>572.6</ele>
        <time>2021-11-17T10:09:16Z</time>
      </trkpt>
      <trkpt lat="44.80031" lon="5.08833">
        <ele>572.6</ele>
        <time>2021-11-17T10:10:02Z</time>
      </trkpt>
      <trkpt lat="44.80037" lon="5.08837">
        <ele>572.6</ele>
        <time>2021-11-17T10:10:21Z</time>
      </trkpt>
      <trkpt lat="44.8005" lon="5.0884">
        <ele>574.04</ele>
        <time>2021-11-17T10:10:40Z</time>
      </trkpt>
      <trkpt lat="44.80057" lon="5.08841">
        <ele>575.01</ele>
        <time>2021-11-17T10:10:56Z</time>
      </trkpt>
      <trkpt lat="44.80068" lon="5.08843">
        <ele>575.97</ele>
        <time>2021-11-17T10:11:15Z</time>
      </trkpt>
      <trkpt lat="44.80071" lon="5.08845">
        <ele>577.41</ele>
        <time>2021-11-17T10:11:32Z</time>
      </trkpt>
      <trkpt lat="44.80075" lon="5.08845">
        <ele>577.41</ele>
        <time>2021-11-17T10:11:47Z</time>
      </trkpt>
      <trkpt lat="44.8008" lon="5.08847">
        <ele>578.37</ele>
        <time>2021-11-17T10:12:06Z</time>
      </trkpt>
      <trkpt lat="44.80081" lon="5.08847">
        <ele>578.37</ele>
        <time>2021-11-17T10:12:46Z</time>
      </trkpt>
      <trkpt lat="44.80081" lon="5.08847">
        <ele>578.37</ele>
        <time>2021-11-17T10:13:07Z</time>
      </trkpt>
      <trkpt lat="44.80085" lon="5.08846">
        <ele>578.85</ele>
        <time>2021-11-17T10:13:30Z</time>
      </trkpt>
      <trkpt lat="44.80087" lon="5.08847">
        <ele>578.37</ele>
        <time>2021-11-17T10:13:51Z</time>
      </trkpt>
      <trkpt lat="44.8009" lon="5.08847">
        <ele>578.37</ele>
        <time>2021-11-17T10:14:17Z</time>
      </trkpt>
      <trkpt lat="44.80095" lon="5.08845">
        <ele>578.37</ele>
        <time>2021-11-17T10:14:50Z</time>
      </trkpt>
      <trkpt lat="44.80099" lon="5.08844">
        <ele>578.37</ele>
        <time>2021-11-17T10:15:05Z</time>
      </trkpt>
      <trkpt lat="44.801" lon="5.08844">
        <ele>578.37</ele>
        <time>2021-11-17T10:15:23Z</time>
      </trkpt>
      <trkpt lat="44.80105" lon="5.0884">
        <ele>578.37</ele>
        <time>2021-11-17T10:15:39Z</time>
      </trkpt>
      <trkpt lat="44.80108" lon="5.08842">
        <ele>582.22</ele>
        <time>2021-11-17T10:15:47Z</time>
      </trkpt>
      <trkpt lat="44.80109" lon="5.08842">
        <ele>582.7</ele>
        <time>2021-11-17T10:15:48Z</time>
      </trkpt>
      <trkpt lat="44.80113" lon="5.08845">
        <ele>584.14</ele>
        <time>2021-11-17T10:16:03Z</time>
      </trkpt>
      <trkpt lat="44.80118" lon="5.08847">
        <ele>586.54</ele>
        <time>2021-11-17T10:16:17Z</time>
      </trkpt>
      <trkpt lat="44.8012" lon="5.08846">
        <ele>587.02</ele>
        <time>2021-11-17T10:16:36Z</time>
      </trkpt>
      <trkpt lat="44.80122" lon="5.08845">
        <ele>587.98</ele>
        <time>2021-11-17T10:16:58Z</time>
      </trkpt>
      <trkpt lat="44.80126" lon="5.08836">
        <ele>589.91</ele>
        <time>2021-11-17T10:17:13Z</time>
      </trkpt>
      <trkpt lat="44.80131" lon="5.08828">
        <ele>592.79</ele>
        <time>2021-11-17T10:17:27Z</time>
      </trkpt>
      <trkpt lat="44.80135" lon="5.08821">
        <ele>594.71</ele>
        <time>2021-11-17T10:17:40Z</time>
      </trkpt>
      <trkpt lat="44.80141" lon="5.08818">
        <ele>597.12</ele>
        <time>2021-11-17T10:17:55Z</time>
      </trkpt>
      <trkpt lat="44.80145" lon="5.08817">
        <ele>599.52</ele>
        <time>2021-11-17T10:18:10Z</time>
      </trkpt>
      <trkpt lat="44.80153" lon="5.08816">
        <ele>602.4</ele>
        <time>2021-11-17T10:18:26Z</time>
      </trkpt>
      <trkpt lat="44.80159" lon="5.08814">
        <ele>603.85</ele>
        <time>2021-11-17T10:18:38Z</time>
      </trkpt>
      <trkpt lat="44.80166" lon="5.08809">
        <ele>606.25</ele>
        <time>2021-11-17T10:18:54Z</time>
      </trkpt>
      <trkpt lat="44.80173" lon="5.08802">
        <ele>607.69</ele>
        <time>2021-11-17T10:19:09Z</time>
      </trkpt>
      <trkpt lat="44.80183" lon="5.08799">
        <ele>609.61</ele>
        <time>2021-11-17T10:19:25Z</time>
      </trkpt>
      <trkpt lat="44.80189" lon="5.08799">
        <ele>611.06</ele>
        <time>2021-11-17T10:19:39Z</time>
      </trkpt>
      <trkpt lat="44.80197" lon="5.08798">
        <ele>613.94</ele>
        <time>2021-11-17T10:19:53Z</time>
      </trkpt>
      <trkpt lat="44.80204" lon="5.08796">
        <ele>615.38</ele>
        <time>2021-11-17T10:20:08Z</time>
      </trkpt>
      <trkpt lat="44.80206" lon="5.08797">
        <ele>616.82</ele>
        <time>2021-11-17T10:20:24Z</time>
      </trkpt>
      <trkpt lat="44.80209" lon="5.08796">
        <ele>617.78</ele>
        <time>2021-11-17T10:20:48Z</time>
      </trkpt>
      <trkpt lat="44.80209" lon="5.08796">
        <ele>618.75</ele>
        <time>2021-11-17T10:21:22Z</time>
      </trkpt>
      <trkpt lat="44.80209" lon="5.08796">
        <ele>618.75</ele>
        <time>2021-11-17T10:21:53Z</time>
      </trkpt>
      <trkpt lat="44.80214" lon="5.08792">
        <ele>618.75</ele>
        <time>2021-11-17T10:22:08Z</time>
      </trkpt>
      <trkpt lat="44.80224" lon="5.08794">
        <ele>620.67</ele>
        <time>2021-11-17T10:22:22Z</time>
      </trkpt>
      <trkpt lat="44.80232" lon="5.08796">
        <ele>623.55</ele>
        <time>2021-11-17T10:22:36Z</time>
      </trkpt>
      <trkpt lat="44.80241" lon="5.088">
        <ele>626.92</ele>
        <time>2021-11-17T10:22:52Z</time>
      </trkpt>
      <trkpt lat="44.80252" lon="5.08796">
        <ele>629.8</ele>
        <time>2021-11-17T10:23:09Z</time>
      </trkpt>
      <trkpt lat="44.80254" lon="5.08796">
        <ele>630.76</ele>
        <time>2021-11-17T10:23:14Z</time>
      </trkpt>
      <trkpt lat="44.8026" lon="5.08796">
        <ele>633.17</ele>
        <time>2021-11-17T10:23:27Z</time>
      </trkpt>
      <trkpt lat="44.80272" lon="5.08793">
        <ele>635.57</ele>
        <time>2021-11-17T10:23:44Z</time>
      </trkpt>
      <trkpt lat="44.80285" lon="5.08794">
        <ele>637.97</ele>
        <time>2021-11-17T10:24:01Z</time>
      </trkpt>
      <trkpt lat="44.80293" lon="5.08797">
        <ele>640.38</ele>
        <time>2021-11-17T10:24:17Z</time>
      </trkpt>
      <trkpt lat="44.803" lon="5.08795">
        <ele>642.3</ele>
        <time>2021-11-17T10:24:35Z</time>
      </trkpt>
      <trkpt lat="44.80313" lon="5.08791">
        <ele>645.18</ele>
        <time>2021-11-17T10:24:54Z</time>
      </trkpt>
      <trkpt lat="44.80324" lon="5.08792">
        <ele>648.07</ele>
        <time>2021-11-17T10:25:08Z</time>
      </trkpt>
      <trkpt lat="44.80335" lon="5.08792">
        <ele>651.43</ele>
        <time>2021-11-17T10:25:24Z</time>
      </trkpt>
      <trkpt lat="44.80339" lon="5.0879">
        <ele>653.35</ele>
        <time>2021-11-17T10:25:43Z</time>
      </trkpt>
      <trkpt lat="44.80348" lon="5.08786">
        <ele>654.8</ele>
        <time>2021-11-17T10:25:59Z</time>
      </trkpt>
      <trkpt lat="44.80351" lon="5.08786">
        <ele>656.72</ele>
        <time>2021-11-17T10:26:17Z</time>
      </trkpt>
      <trkpt lat="44.80352" lon="5.08786">
        <ele>657.2</ele>
        <time>2021-11-17T10:26:42Z</time>
      </trkpt>
      <trkpt lat="44.80352" lon="5.08786">
        <ele>657.68</ele>
        <time>2021-11-17T10:26:53Z</time>
      </trkpt>
      <trkpt lat="44.80352" lon="5.08785">
        <ele>656.72</ele>
        <time>2021-11-17T10:27:36Z</time>
      </trkpt>
      <trkpt lat="44.80352" lon="5.08785">
        <ele>656.72</ele>
        <time>2021-11-17T10:28:20Z</time>
      </trkpt>
      <trkpt lat="44.80352" lon="5.08786">
        <ele>656.24</ele>
        <time>2021-11-17T10:28:48Z</time>
      </trkpt>
      <trkpt lat="44.80352" lon="5.08785">
        <ele>654.31</ele>
        <time>2021-11-17T10:29:10Z</time>
      </trkpt>
      <trkpt lat="44.80352" lon="5.08785">
        <ele>657.68</ele>
        <time>2021-11-17T10:29:13Z</time>
      </trkpt>
      <trkpt lat="44.80352" lon="5.08785">
        <ele>658.16</ele>
        <time>2021-11-17T10:29:15Z</time>
      </trkpt>
      <trkpt lat="44.80352" lon="5.08785">
        <ele>654.8</ele>
        <time>2021-11-17T10:29:23Z</time>
      </trkpt>
      <trkpt lat="44.80352" lon="5.08785">
        <ele>658.16</ele>
        <time>2021-11-17T10:29:29Z</time>
      </trkpt>
      <trkpt lat="44.80353" lon="5.08785">
        <ele>660.56</ele>
        <time>2021-11-17T10:29:33Z</time>
      </trkpt>
      <trkpt lat="44.80357" lon="5.08784">
        <ele>657.68</ele>
        <time>2021-11-17T10:29:50Z</time>
      </trkpt>
      <trkpt lat="44.80365" lon="5.08785">
        <ele>658.16</ele>
        <time>2021-11-17T10:30:00Z</time>
      </trkpt>
      <trkpt lat="44.80367" lon="5.08785">
        <ele>658.16</ele>
        <time>2021-11-17T10:30:01Z</time>
      </trkpt>
      <trkpt lat="44.80368" lon="5.08785">
        <ele>658.64</ele>
        <time>2021-11-17T10:30:02Z</time>
      </trkpt>
      <trkpt lat="44.80369" lon="5.08785">
        <ele>658.64</ele>
        <time>2021-11-17T10:30:03Z</time>
      </trkpt>
      <trkpt lat="44.80382" lon="5.08785">
        <ele>661.52</ele>
        <time>2021-11-17T10:30:17Z</time>
      </trkpt>
      <trkpt lat="44.80395" lon="5.0878">
        <ele>664.41</ele>
        <time>2021-11-17T10:30:33Z</time>
      </trkpt>
      <trkpt lat="44.80398" lon="5.08777">
        <ele>664.89</ele>
        <time>2021-11-17T10:30:36Z</time>
      </trkpt>
      <trkpt lat="44.80414" lon="5.08761">
        <ele>665.85</ele>
        <time>2021-11-17T10:30:56Z</time>
      </trkpt>
      <trkpt lat="44.80427" lon="5.08753">
        <ele>667.77</ele>
        <time>2021-11-17T10:31:15Z</time>
      </trkpt>
      <trkpt lat="44.80438" lon="5.08745">
        <ele>670.18</ele>
        <time>2021-11-17T10:31:32Z</time>
      </trkpt>
      <trkpt lat="44.80447" lon="5.08737">
        <ele>671.62</ele>
        <time>2021-11-17T10:31:49Z</time>
      </trkpt>
      <trkpt lat="44.80454" lon="5.08731">
        <ele>674.02</ele>
        <time>2021-11-17T10:32:06Z</time>
      </trkpt>
      <trkpt lat="44.80459" lon="5.08733">
        <ele>675.46</ele>
        <time>2021-11-17T10:32:22Z</time>
      </trkpt>
      <trkpt lat="44.80464" lon="5.08741">
        <ele>678.35</ele>
        <time>2021-11-17T10:32:37Z</time>
      </trkpt>
      <trkpt lat="44.80474" lon="5.08734">
        <ele>680.75</ele>
        <time>2021-11-17T10:32:55Z</time>
      </trkpt>
      <trkpt lat="44.80482" lon="5.08723">
        <ele>682.67</ele>
        <time>2021-11-17T10:33:12Z</time>
      </trkpt>
      <trkpt lat="44.8049" lon="5.08712">
        <ele>684.6</ele>
        <time>2021-11-17T10:33:29Z</time>
      </trkpt>
      <trkpt lat="44.80497" lon="5.08708">
        <ele>686.52</ele>
        <time>2021-11-17T10:33:46Z</time>
      </trkpt>
      <trkpt lat="44.80503" lon="5.08707">
        <ele>688.92</ele>
        <time>2021-11-17T10:34:02Z</time>
      </trkpt>
      <trkpt lat="44.80513" lon="5.08704">
        <ele>691.81</ele>
        <time>2021-11-17T10:34:24Z</time>
      </trkpt>
      <trkpt lat="44.80519" lon="5.087">
        <ele>693.25</ele>
        <time>2021-11-17T10:34:38Z</time>
      </trkpt>
      <trkpt lat="44.80527" lon="5.08697">
        <ele>696.61</ele>
        <time>2021-11-17T10:34:54Z</time>
      </trkpt>
      <trkpt lat="44.80536" lon="5.08691">
        <ele>698.05</ele>
        <time>2021-11-17T10:35:11Z</time>
      </trkpt>
      <trkpt lat="44.80545" lon="5.08689">
        <ele>699.98</ele>
        <time>2021-11-17T10:35:26Z</time>
      </trkpt>
      <trkpt lat="44.80556" lon="5.08689">
        <ele>702.38</ele>
        <time>2021-11-17T10:35:42Z</time>
      </trkpt>
      <trkpt lat="44.80567" lon="5.08691">
        <ele>703.82</ele>
        <time>2021-11-17T10:35:58Z</time>
      </trkpt>
      <trkpt lat="44.80577" lon="5.08691">
        <ele>705.75</ele>
        <time>2021-11-17T10:36:14Z</time>
      </trkpt>
      <trkpt lat="44.80588" lon="5.0869">
        <ele>708.63</ele>
        <time>2021-11-17T10:36:31Z</time>
      </trkpt>
      <trkpt lat="44.80597" lon="5.08689">
        <ele>710.55</ele>
        <time>2021-11-17T10:36:50Z</time>
      </trkpt>
      <trkpt lat="44.80606" lon="5.0869">
        <ele>712.95</ele>
        <time>2021-11-17T10:37:07Z</time>
      </trkpt>
      <trkpt lat="44.80609" lon="5.08688">
        <ele>714.88</ele>
        <time>2021-11-17T10:37:19Z</time>
      </trkpt>
      <trkpt lat="44.80609" lon="5.08688">
        <ele>714.88</ele>
        <time>2021-11-17T10:37:48Z</time>
      </trkpt>
      <trkpt lat="44.80613" lon="5.08689">
        <ele>714.88</ele>
        <time>2021-11-17T10:38:22Z</time>
      </trkpt>
      <trkpt lat="44.80614" lon="5.08689">
        <ele>714.88</ele>
        <time>2021-11-17T10:38:23Z</time>
      </trkpt>
      <trkpt lat="44.80617" lon="5.08689">
        <ele>715.36</ele>
        <time>2021-11-17T10:38:26Z</time>
      </trkpt>
      <trkpt lat="44.80622" lon="5.08687">
        <ele>717.76</ele>
        <time>2021-11-17T10:38:44Z</time>
      </trkpt>
      <trkpt lat="44.80622" lon="5.08687">
        <ele>717.76</ele>
        <time>2021-11-17T10:39:16Z</time>
      </trkpt>
      <trkpt lat="44.80627" lon="5.08686">
        <ele>717.28</ele>
        <time>2021-11-17T10:39:45Z</time>
      </trkpt>
      <trkpt lat="44.80628" lon="5.08686">
        <ele>717.76</ele>
        <time>2021-11-17T10:39:46Z</time>
      </trkpt>
      <trkpt lat="44.80639" lon="5.08687">
        <ele>720.16</ele>
        <time>2021-11-17T10:40:00Z</time>
      </trkpt>
      <trkpt lat="44.80651" lon="5.08686">
        <ele>721.61</ele>
        <time>2021-11-17T10:40:16Z</time>
      </trkpt>
      <trkpt lat="44.80667" lon="5.08686">
        <ele>724.49</ele>
        <time>2021-11-17T10:40:35Z</time>
      </trkpt>
      <trkpt lat="44.8068" lon="5.0869">
        <ele>727.37</ele>
        <time>2021-11-17T10:40:52Z</time>
      </trkpt>
      <trkpt lat="44.80693" lon="5.08695">
        <ele>730.26</ele>
        <time>2021-11-17T10:41:11Z</time>
      </trkpt>
      <trkpt lat="44.80703" lon="5.08704">
        <ele>733.14</ele>
        <time>2021-11-17T10:41:28Z</time>
      </trkpt>
      <trkpt lat="44.80707" lon="5.08711">
        <ele>734.58</ele>
        <time>2021-11-17T10:41:48Z</time>
      </trkpt>
      <trkpt lat="44.80709" lon="5.08713">
        <ele>734.58</ele>
        <time>2021-11-17T10:42:12Z</time>
      </trkpt>
      <trkpt lat="44.80709" lon="5.08715">
        <ele>735.07</ele>
        <time>2021-11-17T10:42:25Z</time>
      </trkpt>
      <trkpt lat="44.80707" lon="5.08713">
        <ele>735.07</ele>
        <time>2021-11-17T10:42:55Z</time>
      </trkpt>
      <trkpt lat="44.80708" lon="5.08713">
        <ele>735.07</ele>
        <time>2021-11-17T10:43:23Z</time>
      </trkpt>
      <trkpt lat="44.80718" lon="5.08719">
        <ele>736.03</ele>
        <time>2021-11-17T10:43:41Z</time>
      </trkpt>
      <trkpt lat="44.80722" lon="5.08723">
        <ele>736.03</ele>
        <time>2021-11-17T10:43:47Z</time>
      </trkpt>
      <trkpt lat="44.80737" lon="5.08737">
        <ele>737.95</ele>
        <time>2021-11-17T10:44:08Z</time>
      </trkpt>
      <trkpt lat="44.80751" lon="5.08746">
        <ele>739.39</ele>
        <time>2021-11-17T10:44:27Z</time>
      </trkpt>
      <trkpt lat="44.80769" lon="5.08754">
        <ele>740.83</ele>
        <time>2021-11-17T10:44:48Z</time>
      </trkpt>
      <trkpt lat="44.80785" lon="5.08759">
        <ele>741.79</ele>
        <time>2021-11-17T10:45:04Z</time>
      </trkpt>
      <trkpt lat="44.80797" lon="5.08759">
        <ele>742.76</ele>
        <time>2021-11-17T10:45:20Z</time>
      </trkpt>
      <trkpt lat="44.80808" lon="5.08759">
        <ele>743.72</ele>
        <time>2021-11-17T10:45:38Z</time>
      </trkpt>
      <trkpt lat="44.80832" lon="5.08755">
        <ele>745.64</ele>
        <time>2021-11-17T10:46:05Z</time>
      </trkpt>
      <trkpt lat="44.80849" lon="5.08748">
        <ele>746.6</ele>
        <time>2021-11-17T10:46:23Z</time>
      </trkpt>
      <trkpt lat="44.8086" lon="5.08745">
        <ele>747.08</ele>
        <time>2021-11-17T10:46:34Z</time>
      </trkpt>
      <trkpt lat="44.80871" lon="5.08742">
        <ele>747.56</ele>
        <time>2021-11-17T10:46:44Z</time>
      </trkpt>
      <trkpt lat="44.80883" lon="5.0874">
        <ele>748.04</ele>
        <time>2021-11-17T10:46:55Z</time>
      </trkpt>
      <trkpt lat="44.80901" lon="5.0873">
        <ele>748.04</ele>
        <time>2021-11-17T10:47:13Z</time>
      </trkpt>
      <trkpt lat="44.80917" lon="5.08726">
        <ele>747.56</ele>
        <time>2021-11-17T10:47:30Z</time>
      </trkpt>
      <trkpt lat="44.80943" lon="5.08729">
        <ele>746.6</ele>
        <time>2021-11-17T10:47:52Z</time>
      </trkpt>
      <trkpt lat="44.80966" lon="5.08738">
        <ele>745.16</ele>
        <time>2021-11-17T10:48:13Z</time>
      </trkpt>
      <trkpt lat="44.80992" lon="5.08748">
        <ele>743.24</ele>
        <time>2021-11-17T10:48:34Z</time>
      </trkpt>
      <trkpt lat="44.81017" lon="5.08758">
        <ele>741.31</ele>
        <time>2021-11-17T10:48:56Z</time>
      </trkpt>
      <trkpt lat="44.81035" lon="5.08768">
        <ele>738.91</ele>
        <time>2021-11-17T10:49:12Z</time>
      </trkpt>
      <trkpt lat="44.81061" lon="5.08782">
        <ele>736.03</ele>
        <time>2021-11-17T10:49:34Z</time>
      </trkpt>
      <trkpt lat="44.81079" lon="5.08795">
        <ele>733.62</ele>
        <time>2021-11-17T10:49:53Z</time>
      </trkpt>
      <trkpt lat="44.81098" lon="5.08803">
        <ele>731.7</ele>
        <time>2021-11-17T10:50:12Z</time>
      </trkpt>
      <trkpt lat="44.81119" lon="5.08807">
        <ele>730.26</ele>
        <time>2021-11-17T10:50:33Z</time>
      </trkpt>
      <trkpt lat="44.8113" lon="5.08807">
        <ele>729.3</ele>
        <time>2021-11-17T10:50:45Z</time>
      </trkpt>
      <trkpt lat="44.81132" lon="5.08807">
        <ele>729.3</ele>
        <time>2021-11-17T10:50:47Z</time>
      </trkpt>
      <trkpt lat="44.81133" lon="5.08807">
        <ele>728.82</ele>
        <time>2021-11-17T10:50:48Z</time>
      </trkpt>
      <trkpt lat="44.81134" lon="5.08808">
        <ele>728.82</ele>
        <time>2021-11-17T10:50:49Z</time>
      </trkpt>
      <trkpt lat="44.81155" lon="5.08817">
        <ele>726.89</ele>
        <time>2021-11-17T10:51:09Z</time>
      </trkpt>
      <trkpt lat="44.81176" lon="5.08824">
        <ele>726.41</ele>
        <time>2021-11-17T10:51:28Z</time>
      </trkpt>
      <trkpt lat="44.81199" lon="5.08833">
        <ele>726.41</ele>
        <time>2021-11-17T10:51:50Z</time>
      </trkpt>
      <trkpt lat="44.81222" lon="5.08835">
        <ele>724.01</ele>
        <time>2021-11-17T10:52:13Z</time>
      </trkpt>
      <trkpt lat="44.81234" lon="5.08835">
        <ele>721.61</ele>
        <time>2021-11-17T10:52:28Z</time>
      </trkpt>
      <trkpt lat="44.81238" lon="5.08836">
        <ele>721.61</ele>
        <time>2021-11-17T10:52:32Z</time>
      </trkpt>
      <trkpt lat="44.81262" lon="5.08842">
        <ele>720.65</ele>
        <time>2021-11-17T10:52:52Z</time>
      </trkpt>
      <trkpt lat="44.81281" lon="5.08851">
        <ele>718.72</ele>
        <time>2021-11-17T10:53:12Z</time>
      </trkpt>
      <trkpt lat="44.81284" lon="5.08853">
        <ele>718.72</ele>
        <time>2021-11-17T10:53:15Z</time>
      </trkpt>
      <trkpt lat="44.81285" lon="5.08853">
        <ele>718.72</ele>
        <time>2021-11-17T10:53:16Z</time>
      </trkpt>
      <trkpt lat="44.81286" lon="5.08854">
        <ele>718.72</ele>
        <time>2021-11-17T10:53:17Z</time>
      </trkpt>
      <trkpt lat="44.81287" lon="5.08854">
        <ele>718.72</ele>
        <time>2021-11-17T10:53:18Z</time>
      </trkpt>
      <trkpt lat="44.81288" lon="5.08855">
        <ele>718.72</ele>
        <time>2021-11-17T10:53:19Z</time>
      </trkpt>
      <trkpt lat="44.81289" lon="5.08856">
        <ele>718.72</ele>
        <time>2021-11-17T10:53:20Z</time>
      </trkpt>
      <trkpt lat="44.8131" lon="5.08874">
        <ele>721.61</ele>
        <time>2021-11-17T10:53:41Z</time>
      </trkpt>
      <trkpt lat="44.81312" lon="5.08876">
        <ele>721.61</ele>
        <time>2021-11-17T10:53:44Z</time>
      </trkpt>
      <trkpt lat="44.81313" lon="5.08876">
        <ele>721.61</ele>
        <time>2021-11-17T10:53:45Z</time>
      </trkpt>
      <trkpt lat="44.81314" lon="5.08878">
        <ele>721.61</ele>
        <time>2021-11-17T10:53:46Z</time>
      </trkpt>
      <trkpt lat="44.81333" lon="5.08895">
        <ele>722.09</ele>
        <time>2021-11-17T10:54:05Z</time>
      </trkpt>
      <trkpt lat="44.81341" lon="5.08903">
        <ele>722.57</ele>
        <time>2021-11-17T10:54:23Z</time>
      </trkpt>
      <trkpt lat="44.81341" lon="5.08905">
        <ele>723.53</ele>
        <time>2021-11-17T10:54:39Z</time>
      </trkpt>
      <trkpt lat="44.81342" lon="5.08905">
        <ele>723.53</ele>
        <time>2021-11-17T10:55:06Z</time>
      </trkpt>
      <trkpt lat="44.81343" lon="5.08906">
        <ele>723.05</ele>
        <time>2021-11-17T10:55:32Z</time>
      </trkpt>
      <trkpt lat="44.81344" lon="5.08907">
        <ele>723.05</ele>
        <time>2021-11-17T10:55:54Z</time>
      </trkpt>
      <trkpt lat="44.81352" lon="5.08918">
        <ele>726.41</ele>
        <time>2021-11-17T10:56:16Z</time>
      </trkpt>
      <trkpt lat="44.81361" lon="5.08931">
        <ele>727.37</ele>
        <time>2021-11-17T10:56:34Z</time>
      </trkpt>
      <trkpt lat="44.81373" lon="5.08941">
        <ele>727.37</ele>
        <time>2021-11-17T10:56:56Z</time>
      </trkpt>
      <trkpt lat="44.81388" lon="5.08955">
        <ele>728.82</ele>
        <time>2021-11-17T10:57:22Z</time>
      </trkpt>
      <trkpt lat="44.81409" lon="5.08966">
        <ele>729.78</ele>
        <time>2021-11-17T10:57:48Z</time>
      </trkpt>
      <trkpt lat="44.81415" lon="5.08967">
        <ele>730.74</ele>
        <time>2021-11-17T10:58:05Z</time>
      </trkpt>
      <trkpt lat="44.81422" lon="5.08969">
        <ele>730.26</ele>
        <time>2021-11-17T10:58:21Z</time>
      </trkpt>
      <trkpt lat="44.81441" lon="5.08974">
        <ele>732.66</ele>
        <time>2021-11-17T10:58:41Z</time>
      </trkpt>
      <trkpt lat="44.81458" lon="5.08981">
        <ele>736.03</ele>
        <time>2021-11-17T10:58:58Z</time>
      </trkpt>
      <trkpt lat="44.81468" lon="5.08986">
        <ele>736.51</ele>
        <time>2021-11-17T10:59:07Z</time>
      </trkpt>
      <trkpt lat="44.81469" lon="5.08986">
        <ele>736.51</ele>
        <time>2021-11-17T10:59:08Z</time>
      </trkpt>
      <trkpt lat="44.81489" lon="5.08999">
        <ele>737.95</ele>
        <time>2021-11-17T10:59:31Z</time>
      </trkpt>
      <trkpt lat="44.8149" lon="5.08999">
        <ele>738.91</ele>
        <time>2021-11-17T10:59:58Z</time>
      </trkpt>
      <trkpt lat="44.8149" lon="5.08999">
        <ele>739.39</ele>
        <time>2021-11-17T11:00:36Z</time>
      </trkpt>
      <trkpt lat="44.8149" lon="5.08999">
        <ele>739.87</ele>
        <time>2021-11-17T11:01:01Z</time>
      </trkpt>
      <trkpt lat="44.81492" lon="5.09002">
        <ele>739.39</ele>
        <time>2021-11-17T11:01:20Z</time>
      </trkpt>
      <trkpt lat="44.81496" lon="5.09005">
        <ele>739.87</ele>
        <time>2021-11-17T11:01:28Z</time>
      </trkpt>
      <trkpt lat="44.81507" lon="5.09009">
        <ele>740.35</ele>
        <time>2021-11-17T11:01:47Z</time>
      </trkpt>
      <trkpt lat="44.8151" lon="5.09009">
        <ele>741.31</ele>
        <time>2021-11-17T11:02:05Z</time>
      </trkpt>
      <trkpt lat="44.81515" lon="5.0901">
        <ele>740.83</ele>
        <time>2021-11-17T11:02:25Z</time>
      </trkpt>
      <trkpt lat="44.8152" lon="5.09011">
        <ele>740.83</ele>
        <time>2021-11-17T11:02:31Z</time>
      </trkpt>
      <trkpt lat="44.81539" lon="5.09018">
        <ele>741.31</ele>
        <time>2021-11-17T11:02:54Z</time>
      </trkpt>
      <trkpt lat="44.81541" lon="5.09018">
        <ele>741.31</ele>
        <time>2021-11-17T11:02:56Z</time>
      </trkpt>
      <trkpt lat="44.81543" lon="5.09019">
        <ele>741.31</ele>
        <time>2021-11-17T11:02:58Z</time>
      </trkpt>
      <trkpt lat="44.8156" lon="5.09024">
        <ele>741.79</ele>
        <time>2021-11-17T11:03:16Z</time>
      </trkpt>
      <trkpt lat="44.81577" lon="5.09031">
        <ele>740.35</ele>
        <time>2021-11-17T11:03:37Z</time>
      </trkpt>
      <trkpt lat="44.8159" lon="5.09039">
        <ele>738.43</ele>
        <time>2021-11-17T11:03:58Z</time>
      </trkpt>
      <trkpt lat="44.81587" lon="5.0904">
        <ele>739.87</ele>
        <time>2021-11-17T11:04:19Z</time>
      </trkpt>
      <trkpt lat="44.81578" lon="5.09042">
        <ele>742.28</ele>
        <time>2021-11-17T11:04:36Z</time>
      </trkpt>
      <trkpt lat="44.81571" lon="5.09044">
        <ele>744.2</ele>
        <time>2021-11-17T11:04:52Z</time>
      </trkpt>
      <trkpt lat="44.81561" lon="5.0905">
        <ele>747.08</ele>
        <time>2021-11-17T11:05:10Z</time>
      </trkpt>
      <trkpt lat="44.81552" lon="5.09057">
        <ele>749.97</ele>
        <time>2021-11-17T11:05:26Z</time>
      </trkpt>
      <trkpt lat="44.81539" lon="5.09062">
        <ele>752.37</ele>
        <time>2021-11-17T11:05:42Z</time>
      </trkpt>
      <trkpt lat="44.81527" lon="5.09071">
        <ele>754.77</ele>
        <time>2021-11-17T11:06:00Z</time>
      </trkpt>
      <trkpt lat="44.81515" lon="5.09077">
        <ele>757.66</ele>
        <time>2021-11-17T11:06:19Z</time>
      </trkpt>
      <trkpt lat="44.81508" lon="5.09083">
        <ele>760.06</ele>
        <time>2021-11-17T11:06:37Z</time>
      </trkpt>
      <trkpt lat="44.81497" lon="5.09089">
        <ele>762.94</ele>
        <time>2021-11-17T11:06:54Z</time>
      </trkpt>
      <trkpt lat="44.81492" lon="5.09097">
        <ele>764.87</ele>
        <time>2021-11-17T11:07:09Z</time>
      </trkpt>
      <trkpt lat="44.81485" lon="5.09106">
        <ele>767.75</ele>
        <time>2021-11-17T11:07:30Z</time>
      </trkpt>
      <trkpt lat="44.81483" lon="5.09113">
        <ele>771.11</ele>
        <time>2021-11-17T11:07:49Z</time>
      </trkpt>
      <trkpt lat="44.8148" lon="5.0912">
        <ele>774</ele>
        <time>2021-11-17T11:08:09Z</time>
      </trkpt>
      <trkpt lat="44.81481" lon="5.09131">
        <ele>776.88</ele>
        <time>2021-11-17T11:08:29Z</time>
      </trkpt>
      <trkpt lat="44.81474" lon="5.09137">
        <ele>779.77</ele>
        <time>2021-11-17T11:08:46Z</time>
      </trkpt>
      <trkpt lat="44.8147" lon="5.0914">
        <ele>783.13</ele>
        <time>2021-11-17T11:09:04Z</time>
      </trkpt>
      <trkpt lat="44.81462" lon="5.09145">
        <ele>785.53</ele>
        <time>2021-11-17T11:09:23Z</time>
      </trkpt>
      <trkpt lat="44.81452" lon="5.09148">
        <ele>787.94</ele>
        <time>2021-11-17T11:09:40Z</time>
      </trkpt>
      <trkpt lat="44.8144" lon="5.09149">
        <ele>789.38</ele>
        <time>2021-11-17T11:09:57Z</time>
      </trkpt>
      <trkpt lat="44.8143" lon="5.09152">
        <ele>792.74</ele>
        <time>2021-11-17T11:10:14Z</time>
      </trkpt>
      <trkpt lat="44.81418" lon="5.09152">
        <ele>795.63</ele>
        <time>2021-11-17T11:10:33Z</time>
      </trkpt>
      <trkpt lat="44.8141" lon="5.09152">
        <ele>797.55</ele>
        <time>2021-11-17T11:10:49Z</time>
      </trkpt>
      <trkpt lat="44.81405" lon="5.09156">
        <ele>799.95</ele>
        <time>2021-11-17T11:11:04Z</time>
      </trkpt>
      <trkpt lat="44.81397" lon="5.09156">
        <ele>801.88</ele>
        <time>2021-11-17T11:11:19Z</time>
      </trkpt>
      <trkpt lat="44.8139" lon="5.0916">
        <ele>804.76</ele>
        <time>2021-11-17T11:11:35Z</time>
      </trkpt>
      <trkpt lat="44.81385" lon="5.09163">
        <ele>806.68</ele>
        <time>2021-11-17T11:11:48Z</time>
      </trkpt>
      <trkpt lat="44.81378" lon="5.09161">
        <ele>809.57</ele>
        <time>2021-11-17T11:12:05Z</time>
      </trkpt>
      <trkpt lat="44.81376" lon="5.09165">
        <ele>811.97</ele>
        <time>2021-11-17T11:12:19Z</time>
      </trkpt>
      <trkpt lat="44.81372" lon="5.09172">
        <ele>814.85</ele>
        <time>2021-11-17T11:12:35Z</time>
      </trkpt>
      <trkpt lat="44.81363" lon="5.09173">
        <ele>818.22</ele>
        <time>2021-11-17T11:12:54Z</time>
      </trkpt>
      <trkpt lat="44.81356" lon="5.09172">
        <ele>820.14</ele>
        <time>2021-11-17T11:13:10Z</time>
      </trkpt>
      <trkpt lat="44.81348" lon="5.09165">
        <ele>821.58</ele>
        <time>2021-11-17T11:13:24Z</time>
      </trkpt>
      <trkpt lat="44.8134" lon="5.09162">
        <ele>823.99</ele>
        <time>2021-11-17T11:13:40Z</time>
      </trkpt>
      <trkpt lat="44.81339" lon="5.09163">
        <ele>824.95</ele>
        <time>2021-11-17T11:14:03Z</time>
      </trkpt>
      <trkpt lat="44.81334" lon="5.09158">
        <ele>826.87</ele>
        <time>2021-11-17T11:14:22Z</time>
      </trkpt>
      <trkpt lat="44.81334" lon="5.09158">
        <ele>826.39</ele>
        <time>2021-11-17T11:14:47Z</time>
      </trkpt>
      <trkpt lat="44.81334" lon="5.09158">
        <ele>826.39</ele>
        <time>2021-11-17T11:15:15Z</time>
      </trkpt>
      <trkpt lat="44.81332" lon="5.09154">
        <ele>826.39</ele>
        <time>2021-11-17T11:15:35Z</time>
      </trkpt>
      <trkpt lat="44.81332" lon="5.09154">
        <ele>826.87</ele>
        <time>2021-11-17T11:15:49Z</time>
      </trkpt>
      <trkpt lat="44.81332" lon="5.09154">
        <ele>826.39</ele>
        <time>2021-11-17T11:16:22Z</time>
      </trkpt>
      <trkpt lat="44.81332" lon="5.09154">
        <ele>826.87</ele>
        <time>2021-11-17T11:16:39Z</time>
      </trkpt>
      <trkpt lat="44.81333" lon="5.09156">
        <ele>826.87</ele>
        <time>2021-11-17T11:17:03Z</time>
      </trkpt>
      <trkpt lat="44.81333" lon="5.09159">
        <ele>826.39</ele>
        <time>2021-11-17T11:17:27Z</time>
      </trkpt>
      <trkpt lat="44.81332" lon="5.09168">
        <ele>826.39</ele>
        <time>2021-11-17T11:17:43Z</time>
      </trkpt>
      <trkpt lat="44.81327" lon="5.09175">
        <ele>829.27</ele>
        <time>2021-11-17T11:18:02Z</time>
      </trkpt>
      <trkpt lat="44.81327" lon="5.09184">
        <ele>832.16</ele>
        <time>2021-11-17T11:18:22Z</time>
      </trkpt>
      <trkpt lat="44.81329" lon="5.09187">
        <ele>835.04</ele>
        <time>2021-11-17T11:18:46Z</time>
      </trkpt>
      <trkpt lat="44.81333" lon="5.09197">
        <ele>837.45</ele>
        <time>2021-11-17T11:19:10Z</time>
      </trkpt>
      <trkpt lat="44.81337" lon="5.09203">
        <ele>840.33</ele>
        <time>2021-11-17T11:19:31Z</time>
      </trkpt>
      <trkpt lat="44.8134" lon="5.09211">
        <ele>842.25</ele>
        <time>2021-11-17T11:19:52Z</time>
      </trkpt>
      <trkpt lat="44.81348" lon="5.09222">
        <ele>845.62</ele>
        <time>2021-11-17T11:20:10Z</time>
      </trkpt>
      <trkpt lat="44.81361" lon="5.09235">
        <ele>848.5</ele>
        <time>2021-11-17T11:20:33Z</time>
      </trkpt>
      <trkpt lat="44.8137" lon="5.09245">
        <ele>851.38</ele>
        <time>2021-11-17T11:21:00Z</time>
      </trkpt>
      <trkpt lat="44.8138" lon="5.09255">
        <ele>854.27</ele>
        <time>2021-11-17T11:21:29Z</time>
      </trkpt>
      <trkpt lat="44.8138" lon="5.09261">
        <ele>857.63</ele>
        <time>2021-11-17T11:21:55Z</time>
      </trkpt>
      <trkpt lat="44.81374" lon="5.09261">
        <ele>860.04</ele>
        <time>2021-11-17T11:22:16Z</time>
      </trkpt>
      <trkpt lat="44.8137" lon="5.09262">
        <ele>863.4</ele>
        <time>2021-11-17T11:22:38Z</time>
      </trkpt>
      <trkpt lat="44.81366" lon="5.09263">
        <ele>865.8</ele>
        <time>2021-11-17T11:22:55Z</time>
      </trkpt>
      <trkpt lat="44.81359" lon="5.09258">
        <ele>868.69</ele>
        <time>2021-11-17T11:23:19Z</time>
      </trkpt>
      <trkpt lat="44.81357" lon="5.09257">
        <ele>869.17</ele>
        <time>2021-11-17T11:23:35Z</time>
      </trkpt>
      <trkpt lat="44.81357" lon="5.09264">
        <ele>870.61</ele>
        <time>2021-11-17T11:23:58Z</time>
      </trkpt>
      <trkpt lat="44.81351" lon="5.0928">
        <ele>873.98</ele>
        <time>2021-11-17T11:24:14Z</time>
      </trkpt>
      <trkpt lat="44.81344" lon="5.09298">
        <ele>875.9</ele>
        <time>2021-11-17T11:24:31Z</time>
      </trkpt>
      <trkpt lat="44.81335" lon="5.09307">
        <ele>877.34</ele>
        <time>2021-11-17T11:24:47Z</time>
      </trkpt>
      <trkpt lat="44.8133" lon="5.09306">
        <ele>876.38</ele>
        <time>2021-11-17T11:25:02Z</time>
      </trkpt>
      <trkpt lat="44.81329" lon="5.09307">
        <ele>876.38</ele>
        <time>2021-11-17T11:25:21Z</time>
      </trkpt>
      <trkpt lat="44.81326" lon="5.0931">
        <ele>876.38</ele>
        <time>2021-11-17T11:25:40Z</time>
      </trkpt>
      <trkpt lat="44.81312" lon="5.0932">
        <ele>876.86</ele>
        <time>2021-11-17T11:26:00Z</time>
      </trkpt>
      <trkpt lat="44.81304" lon="5.09329">
        <ele>876.86</ele>
        <time>2021-11-17T11:26:16Z</time>
      </trkpt>
      <trkpt lat="44.81298" lon="5.09333">
        <ele>876.38</ele>
        <time>2021-11-17T11:26:24Z</time>
      </trkpt>
      <trkpt lat="44.81279" lon="5.09351">
        <ele>875.42</ele>
        <time>2021-11-17T11:26:47Z</time>
      </trkpt>
      <trkpt lat="44.81263" lon="5.09365">
        <ele>875.42</ele>
        <time>2021-11-17T11:27:07Z</time>
      </trkpt>
      <trkpt lat="44.81256" lon="5.09367">
        <ele>874.46</ele>
        <time>2021-11-17T11:27:23Z</time>
      </trkpt>
      <trkpt lat="44.81248" lon="5.09374">
        <ele>874.46</ele>
        <time>2021-11-17T11:27:31Z</time>
      </trkpt>
      <trkpt lat="44.81229" lon="5.09385">
        <ele>873.98</ele>
        <time>2021-11-17T11:27:52Z</time>
      </trkpt>
      <trkpt lat="44.81221" lon="5.09392">
        <ele>874.46</ele>
        <time>2021-11-17T11:28:03Z</time>
      </trkpt>
      <trkpt lat="44.81211" lon="5.09408">
        <ele>873.98</ele>
        <time>2021-11-17T11:28:19Z</time>
      </trkpt>
      <trkpt lat="44.81205" lon="5.09419">
        <ele>872.05</ele>
        <time>2021-11-17T11:28:37Z</time>
      </trkpt>
      <trkpt lat="44.81205" lon="5.09418">
        <ele>872.53</ele>
        <time>2021-11-17T11:29:07Z</time>
      </trkpt>
      <trkpt lat="44.81205" lon="5.09418">
        <ele>871.57</ele>
        <time>2021-11-17T11:29:30Z</time>
      </trkpt>
      <trkpt lat="44.81204" lon="5.09421">
        <ele>870.61</ele>
        <time>2021-11-17T11:29:48Z</time>
      </trkpt>
      <trkpt lat="44.81207" lon="5.09425">
        <ele>871.09</ele>
        <time>2021-11-17T11:30:02Z</time>
      </trkpt>
      <trkpt lat="44.81219" lon="5.09449">
        <ele>870.61</ele>
        <time>2021-11-17T11:30:21Z</time>
      </trkpt>
      <trkpt lat="44.8123" lon="5.09475">
        <ele>870.13</ele>
        <time>2021-11-17T11:30:40Z</time>
      </trkpt>
      <trkpt lat="44.81231" lon="5.09477">
        <ele>870.61</ele>
        <time>2021-11-17T11:30:43Z</time>
      </trkpt>
      <trkpt lat="44.81231" lon="5.0948">
        <ele>870.61</ele>
        <time>2021-11-17T11:30:45Z</time>
      </trkpt>
      <trkpt lat="44.81237" lon="5.09507">
        <ele>869.65</ele>
        <time>2021-11-17T11:31:03Z</time>
      </trkpt>
      <trkpt lat="44.81244" lon="5.09535">
        <ele>868.21</ele>
        <time>2021-11-17T11:31:21Z</time>
      </trkpt>
      <trkpt lat="44.81251" lon="5.09558">
        <ele>866.77</ele>
        <time>2021-11-17T11:31:37Z</time>
      </trkpt>
      <trkpt lat="44.81255" lon="5.09573">
        <ele>865.32</ele>
        <time>2021-11-17T11:31:58Z</time>
      </trkpt>
      <trkpt lat="44.81256" lon="5.09576">
        <ele>864.36</ele>
        <time>2021-11-17T11:32:17Z</time>
      </trkpt>
      <trkpt lat="44.81257" lon="5.09576">
        <ele>864.36</ele>
        <time>2021-11-17T11:32:43Z</time>
      </trkpt>
      <trkpt lat="44.81259" lon="5.09574">
        <ele>864.36</ele>
        <time>2021-11-17T11:33:08Z</time>
      </trkpt>
      <trkpt lat="44.81258" lon="5.09574">
        <ele>863.4</ele>
        <time>2021-11-17T11:33:33Z</time>
      </trkpt>
      <trkpt lat="44.81258" lon="5.09574">
        <ele>863.88</ele>
        <time>2021-11-17T11:33:57Z</time>
      </trkpt>
      <trkpt lat="44.81258" lon="5.09574">
        <ele>863.88</ele>
        <time>2021-11-17T11:34:19Z</time>
      </trkpt>
      <trkpt lat="44.81258" lon="5.09573">
        <ele>863.88</ele>
        <time>2021-11-17T11:35:07Z</time>
      </trkpt>
      <trkpt lat="44.81258" lon="5.09573">
        <ele>863.88</ele>
        <time>2021-11-17T11:35:53Z</time>
      </trkpt>
      <trkpt lat="44.81258" lon="5.09573">
        <ele>863.88</ele>
        <time>2021-11-17T11:38:54Z</time>
      </trkpt>
      <trkpt lat="44.81258" lon="5.09573">
        <ele>863.88</ele>
        <time>2021-11-17T11:42:22Z</time>
      </trkpt>
      <trkpt lat="44.81258" lon="5.09573">
        <ele>863.88</ele>
        <time>2021-11-17T11:45:33Z</time>
      </trkpt>
      <trkpt lat="44.81258" lon="5.09573">
        <ele>863.88</ele>
        <time>2021-11-17T11:48:42Z</time>
      </trkpt>
      <trkpt lat="44.81258" lon="5.09574">
        <ele>863.88</ele>
        <time>2021-11-17T11:49:05Z</time>
      </trkpt>
      <trkpt lat="44.81258" lon="5.09574">
        <ele>863.88</ele>
        <time>2021-11-17T11:49:51Z</time>
      </trkpt>
      <trkpt lat="44.81258" lon="5.09574">
        <ele>863.88</ele>
        <time>2021-11-17T11:50:37Z</time>
      </trkpt>
      <trkpt lat="44.81258" lon="5.09574">
        <ele>863.88</ele>
        <time>2021-11-17T11:51:05Z</time>
      </trkpt>
      <trkpt lat="44.8126" lon="5.09573">
        <ele>863.88</ele>
        <time>2021-11-17T11:51:39Z</time>
      </trkpt>
      <trkpt lat="44.8126" lon="5.09572">
        <ele>863.88</ele>
        <time>2021-11-17T11:51:42Z</time>
      </trkpt>
      <trkpt lat="44.81259" lon="5.09573">
        <ele>863.88</ele>
        <time>2021-11-17T11:52:32Z</time>
      </trkpt>
      <trkpt lat="44.81258" lon="5.09573">
        <ele>863.88</ele>
        <time>2021-11-17T11:53:37Z</time>
      </trkpt>
      <trkpt lat="44.81258" lon="5.09573">
        <ele>863.88</ele>
        <time>2021-11-17T11:55:31Z</time>
      </trkpt>
      <trkpt lat="44.81258" lon="5.09573">
        <ele>863.88</ele>
        <time>2021-11-17T11:57:18Z</time>
      </trkpt>
      <trkpt lat="44.81258" lon="5.09573">
        <ele>863.88</ele>
        <time>2021-11-17T11:57:52Z</time>
      </trkpt>
      <trkpt lat="44.81258" lon="5.09573">
        <ele>863.88</ele>
        <time>2021-11-17T11:58:45Z</time>
      </trkpt>
      <trkpt lat="44.81258" lon="5.09573">
        <ele>863.88</ele>
        <time>2021-11-17T11:59:53Z</time>
      </trkpt>
      <trkpt lat="44.81258" lon="5.09572">
        <ele>863.88</ele>
        <time>2021-11-17T12:00:39Z</time>
      </trkpt>
      <trkpt lat="44.81263" lon="5.09563">
        <ele>866.29</ele>
        <time>2021-11-17T12:00:52Z</time>
      </trkpt>
      <trkpt lat="44.81261" lon="5.09563">
        <ele>866.77</ele>
        <time>2021-11-17T12:01:16Z</time>
      </trkpt>
      <trkpt lat="44.8126" lon="5.09565">
        <ele>867.25</ele>
        <time>2021-11-17T12:01:18Z</time>
      </trkpt>
      <trkpt lat="44.81258" lon="5.09573">
        <ele>866.29</ele>
        <time>2021-11-17T12:01:35Z</time>
      </trkpt>
      <trkpt lat="44.81258" lon="5.09577">
        <ele>866.29</ele>
        <time>2021-11-17T12:01:49Z</time>
      </trkpt>
      <trkpt lat="44.81257" lon="5.09593">
        <ele>864.36</ele>
        <time>2021-11-17T12:02:05Z</time>
      </trkpt>
      <trkpt lat="44.81257" lon="5.09593">
        <ele>863.4</ele>
        <time>2021-11-17T12:02:26Z</time>
      </trkpt>
      <trkpt lat="44.81257" lon="5.09593">
        <ele>863.88</ele>
        <time>2021-11-17T12:02:52Z</time>
      </trkpt>
      <trkpt lat="44.81257" lon="5.09593">
        <ele>863.4</ele>
        <time>2021-11-17T12:03:12Z</time>
      </trkpt>
      <trkpt lat="44.81257" lon="5.09599">
        <ele>863.4</ele>
        <time>2021-11-17T12:03:26Z</time>
      </trkpt>
      <trkpt lat="44.81256" lon="5.09605">
        <ele>862.92</ele>
        <time>2021-11-17T12:03:43Z</time>
      </trkpt>
      <trkpt lat="44.81254" lon="5.09613">
        <ele>862.92</ele>
        <time>2021-11-17T12:04:00Z</time>
      </trkpt>
      <trkpt lat="44.81252" lon="5.09619">
        <ele>862.92</ele>
        <time>2021-11-17T12:04:24Z</time>
      </trkpt>
      <trkpt lat="44.81249" lon="5.09635">
        <ele>863.4</ele>
        <time>2021-11-17T12:04:40Z</time>
      </trkpt>
      <trkpt lat="44.81248" lon="5.09641">
        <ele>862.92</ele>
        <time>2021-11-17T12:04:45Z</time>
      </trkpt>
      <trkpt lat="44.81244" lon="5.09651">
        <ele>863.4</ele>
        <time>2021-11-17T12:04:59Z</time>
      </trkpt>
      <trkpt lat="44.81243" lon="5.09654">
        <ele>863.4</ele>
        <time>2021-11-17T12:05:01Z</time>
      </trkpt>
      <trkpt lat="44.8124" lon="5.09662">
        <ele>863.88</ele>
        <time>2021-11-17T12:05:08Z</time>
      </trkpt>
      <trkpt lat="44.81239" lon="5.09664">
        <ele>863.88</ele>
        <time>2021-11-17T12:05:09Z</time>
      </trkpt>
      <trkpt lat="44.81228" lon="5.09691">
        <ele>862.44</ele>
        <time>2021-11-17T12:05:28Z</time>
      </trkpt>
      <trkpt lat="44.81213" lon="5.09721">
        <ele>859.56</ele>
        <time>2021-11-17T12:05:50Z</time>
      </trkpt>
      <trkpt lat="44.81206" lon="5.09742">
        <ele>856.19</ele>
        <time>2021-11-17T12:06:06Z</time>
      </trkpt>
      <trkpt lat="44.81201" lon="5.09756">
        <ele>853.79</ele>
        <time>2021-11-17T12:06:19Z</time>
      </trkpt>
      <trkpt lat="44.81202" lon="5.09765">
        <ele>852.35</ele>
        <time>2021-11-17T12:06:29Z</time>
      </trkpt>
      <trkpt lat="44.81203" lon="5.09766">
        <ele>852.35</ele>
        <time>2021-11-17T12:06:30Z</time>
      </trkpt>
      <trkpt lat="44.81203" lon="5.09768">
        <ele>851.87</ele>
        <time>2021-11-17T12:06:31Z</time>
      </trkpt>
      <trkpt lat="44.81203" lon="5.0977">
        <ele>851.87</ele>
        <time>2021-11-17T12:06:32Z</time>
      </trkpt>
      <trkpt lat="44.81204" lon="5.09771">
        <ele>851.87</ele>
        <time>2021-11-17T12:06:33Z</time>
      </trkpt>
      <trkpt lat="44.81204" lon="5.09773">
        <ele>851.87</ele>
        <time>2021-11-17T12:06:34Z</time>
      </trkpt>
      <trkpt lat="44.81212" lon="5.09796">
        <ele>848.98</ele>
        <time>2021-11-17T12:06:51Z</time>
      </trkpt>
      <trkpt lat="44.81217" lon="5.09804">
        <ele>848.02</ele>
        <time>2021-11-17T12:06:58Z</time>
      </trkpt>
      <trkpt lat="44.81229" lon="5.09822">
        <ele>845.62</ele>
        <time>2021-11-17T12:07:18Z</time>
      </trkpt>
      <trkpt lat="44.81237" lon="5.0984">
        <ele>842.73</ele>
        <time>2021-11-17T12:07:36Z</time>
      </trkpt>
      <trkpt lat="44.81239" lon="5.09843">
        <ele>842.25</ele>
        <time>2021-11-17T12:07:38Z</time>
      </trkpt>
      <trkpt lat="44.81239" lon="5.09844">
        <ele>841.77</ele>
        <time>2021-11-17T12:07:39Z</time>
      </trkpt>
      <trkpt lat="44.81252" lon="5.09868">
        <ele>838.89</ele>
        <time>2021-11-17T12:08:00Z</time>
      </trkpt>
      <trkpt lat="44.81261" lon="5.09887">
        <ele>836</ele>
        <time>2021-11-17T12:08:19Z</time>
      </trkpt>
      <trkpt lat="44.81264" lon="5.09902">
        <ele>832.64</ele>
        <time>2021-11-17T12:08:31Z</time>
      </trkpt>
      <trkpt lat="44.81273" lon="5.09919">
        <ele>829.27</ele>
        <time>2021-11-17T12:08:45Z</time>
      </trkpt>
      <trkpt lat="44.81283" lon="5.09933">
        <ele>826.39</ele>
        <time>2021-11-17T12:08:58Z</time>
      </trkpt>
      <trkpt lat="44.81298" lon="5.09953">
        <ele>823.51</ele>
        <time>2021-11-17T12:09:15Z</time>
      </trkpt>
      <trkpt lat="44.81313" lon="5.09972">
        <ele>820.62</ele>
        <time>2021-11-17T12:09:32Z</time>
      </trkpt>
      <trkpt lat="44.81319" lon="5.09987">
        <ele>817.26</ele>
        <time>2021-11-17T12:09:45Z</time>
      </trkpt>
      <trkpt lat="44.81326" lon="5.10007">
        <ele>814.37</ele>
        <time>2021-11-17T12:10:02Z</time>
      </trkpt>
      <trkpt lat="44.81329" lon="5.10015">
        <ele>812.93</ele>
        <time>2021-11-17T12:10:09Z</time>
      </trkpt>
      <trkpt lat="44.81335" lon="5.1004">
        <ele>810.05</ele>
        <time>2021-11-17T12:10:25Z</time>
      </trkpt>
      <trkpt lat="44.81341" lon="5.10061">
        <ele>807.16</ele>
        <time>2021-11-17T12:10:39Z</time>
      </trkpt>
      <trkpt lat="44.81348" lon="5.10083">
        <ele>803.8</ele>
        <time>2021-11-17T12:10:55Z</time>
      </trkpt>
      <trkpt lat="44.81349" lon="5.10084">
        <ele>803.8</ele>
        <time>2021-11-17T12:10:56Z</time>
      </trkpt>
      <trkpt lat="44.8135" lon="5.10087">
        <ele>803.8</ele>
        <time>2021-11-17T12:10:58Z</time>
      </trkpt>
      <trkpt lat="44.81351" lon="5.10089">
        <ele>803.8</ele>
        <time>2021-11-17T12:10:59Z</time>
      </trkpt>
      <trkpt lat="44.81363" lon="5.10116">
        <ele>803.8</ele>
        <time>2021-11-17T12:11:20Z</time>
      </trkpt>
      <trkpt lat="44.81379" lon="5.10134">
        <ele>804.76</ele>
        <time>2021-11-17T12:11:41Z</time>
      </trkpt>
      <trkpt lat="44.81396" lon="5.1016">
        <ele>804.76</ele>
        <time>2021-11-17T12:12:05Z</time>
      </trkpt>
      <trkpt lat="44.81411" lon="5.10177">
        <ele>802.84</ele>
        <time>2021-11-17T12:12:26Z</time>
      </trkpt>
      <trkpt lat="44.8142" lon="5.1019">
        <ele>799.95</ele>
        <time>2021-11-17T12:12:40Z</time>
      </trkpt>
      <trkpt lat="44.81427" lon="5.10202">
        <ele>796.59</ele>
        <time>2021-11-17T12:12:55Z</time>
      </trkpt>
      <trkpt lat="44.81429" lon="5.10214">
        <ele>793.22</ele>
        <time>2021-11-17T12:13:08Z</time>
      </trkpt>
      <trkpt lat="44.81426" lon="5.10233">
        <ele>790.34</ele>
        <time>2021-11-17T12:13:22Z</time>
      </trkpt>
      <trkpt lat="44.81426" lon="5.10246">
        <ele>786.98</ele>
        <time>2021-11-17T12:13:32Z</time>
      </trkpt>
      <trkpt lat="44.81427" lon="5.10266">
        <ele>784.57</ele>
        <time>2021-11-17T12:13:47Z</time>
      </trkpt>
      <trkpt lat="44.81425" lon="5.10292">
        <ele>782.17</ele>
        <time>2021-11-17T12:14:04Z</time>
      </trkpt>
      <trkpt lat="44.8142" lon="5.10313">
        <ele>779.29</ele>
        <time>2021-11-17T12:14:21Z</time>
      </trkpt>
      <trkpt lat="44.81411" lon="5.10337">
        <ele>776.4</ele>
        <time>2021-11-17T12:14:42Z</time>
      </trkpt>
      <trkpt lat="44.81408" lon="5.10357">
        <ele>773.52</ele>
        <time>2021-11-17T12:15:01Z</time>
      </trkpt>
      <trkpt lat="44.81415" lon="5.10369">
        <ele>770.63</ele>
        <time>2021-11-17T12:15:17Z</time>
      </trkpt>
      <trkpt lat="44.81421" lon="5.10375">
        <ele>769.19</ele>
        <time>2021-11-17T12:15:25Z</time>
      </trkpt>
      <trkpt lat="44.81438" lon="5.10388">
        <ele>765.83</ele>
        <time>2021-11-17T12:15:44Z</time>
      </trkpt>
      <trkpt lat="44.81452" lon="5.10392">
        <ele>763.9</ele>
        <time>2021-11-17T12:16:03Z</time>
      </trkpt>
      <trkpt lat="44.81452" lon="5.10394">
        <ele>763.42</ele>
        <time>2021-11-17T12:16:23Z</time>
      </trkpt>
      <trkpt lat="44.81452" lon="5.10394">
        <ele>762.94</ele>
        <time>2021-11-17T12:16:47Z</time>
      </trkpt>
      <trkpt lat="44.81444" lon="5.10403">
        <ele>761.98</ele>
        <time>2021-11-17T12:17:07Z</time>
      </trkpt>
      <trkpt lat="44.81436" lon="5.10411">
        <ele>762.46</ele>
        <time>2021-11-17T12:17:24Z</time>
      </trkpt>
      <trkpt lat="44.81435" lon="5.10412">
        <ele>762.46</ele>
        <time>2021-11-17T12:17:25Z</time>
      </trkpt>
      <trkpt lat="44.8142" lon="5.10428">
        <ele>761.98</ele>
        <time>2021-11-17T12:17:44Z</time>
      </trkpt>
      <trkpt lat="44.81402" lon="5.10447">
        <ele>761.02</ele>
        <time>2021-11-17T12:18:06Z</time>
      </trkpt>
      <trkpt lat="44.81382" lon="5.10467">
        <ele>760.54</ele>
        <time>2021-11-17T12:18:27Z</time>
      </trkpt>
      <trkpt lat="44.81356" lon="5.1049">
        <ele>760.54</ele>
        <time>2021-11-17T12:18:53Z</time>
      </trkpt>
      <trkpt lat="44.81325" lon="5.10511">
        <ele>759.58</ele>
        <time>2021-11-17T12:19:22Z</time>
      </trkpt>
      <trkpt lat="44.81316" lon="5.10517">
        <ele>760.06</ele>
        <time>2021-11-17T12:19:30Z</time>
      </trkpt>
      <trkpt lat="44.81314" lon="5.10519">
        <ele>760.06</ele>
        <time>2021-11-17T12:19:33Z</time>
      </trkpt>
      <trkpt lat="44.81313" lon="5.1052">
        <ele>759.58</ele>
        <time>2021-11-17T12:19:34Z</time>
      </trkpt>
      <trkpt lat="44.81312" lon="5.10521">
        <ele>759.58</ele>
        <time>2021-11-17T12:19:35Z</time>
      </trkpt>
      <trkpt lat="44.81311" lon="5.10521">
        <ele>759.58</ele>
        <time>2021-11-17T12:19:36Z</time>
      </trkpt>
      <trkpt lat="44.8131" lon="5.10522">
        <ele>759.58</ele>
        <time>2021-11-17T12:19:37Z</time>
      </trkpt>
      <trkpt lat="44.81309" lon="5.10523">
        <ele>759.58</ele>
        <time>2021-11-17T12:19:38Z</time>
      </trkpt>
      <trkpt lat="44.81285" lon="5.10543">
        <ele>758.62</ele>
        <time>2021-11-17T12:20:01Z</time>
      </trkpt>
      <trkpt lat="44.81265" lon="5.10561">
        <ele>759.1</ele>
        <time>2021-11-17T12:20:22Z</time>
      </trkpt>
      <trkpt lat="44.81241" lon="5.10577">
        <ele>757.66</ele>
        <time>2021-11-17T12:20:44Z</time>
      </trkpt>
      <trkpt lat="44.81218" lon="5.10582">
        <ele>757.18</ele>
        <time>2021-11-17T12:21:05Z</time>
      </trkpt>
      <trkpt lat="44.81198" lon="5.10581">
        <ele>756.21</ele>
        <time>2021-11-17T12:21:24Z</time>
      </trkpt>
      <trkpt lat="44.81179" lon="5.10582">
        <ele>755.25</ele>
        <time>2021-11-17T12:21:42Z</time>
      </trkpt>
      <trkpt lat="44.81156" lon="5.10585">
        <ele>754.29</ele>
        <time>2021-11-17T12:22:01Z</time>
      </trkpt>
      <trkpt lat="44.81142" lon="5.10587">
        <ele>753.33</ele>
        <time>2021-11-17T12:22:14Z</time>
      </trkpt>
      <trkpt lat="44.81137" lon="5.10588">
        <ele>752.85</ele>
        <time>2021-11-17T12:22:19Z</time>
      </trkpt>
      <trkpt lat="44.81135" lon="5.10588">
        <ele>752.85</ele>
        <time>2021-11-17T12:22:21Z</time>
      </trkpt>
      <trkpt lat="44.81134" lon="5.10588">
        <ele>752.37</ele>
        <time>2021-11-17T12:22:22Z</time>
      </trkpt>
      <trkpt lat="44.81113" lon="5.1059">
        <ele>749</ele>
        <time>2021-11-17T12:22:40Z</time>
      </trkpt>
      <trkpt lat="44.81111" lon="5.10591">
        <ele>748.04</ele>
        <time>2021-11-17T12:22:42Z</time>
      </trkpt>
      <trkpt lat="44.81103" lon="5.10592">
        <ele>751.89</ele>
        <time>2021-11-17T12:22:48Z</time>
      </trkpt>
      <trkpt lat="44.811" lon="5.10592">
        <ele>752.85</ele>
        <time>2021-11-17T12:22:50Z</time>
      </trkpt>
      <trkpt lat="44.81083" lon="5.10591">
        <ele>751.89</ele>
        <time>2021-11-17T12:23:14Z</time>
      </trkpt>
      <trkpt lat="44.81075" lon="5.10589">
        <ele>751.41</ele>
        <time>2021-11-17T12:23:21Z</time>
      </trkpt>
      <trkpt lat="44.81069" lon="5.10587">
        <ele>749.49</ele>
        <time>2021-11-17T12:23:38Z</time>
      </trkpt>
      <trkpt lat="44.81055" lon="5.10587">
        <ele>748.52</ele>
        <time>2021-11-17T12:24:01Z</time>
      </trkpt>
      <trkpt lat="44.81039" lon="5.10581">
        <ele>748.04</ele>
        <time>2021-11-17T12:24:24Z</time>
      </trkpt>
      <trkpt lat="44.81026" lon="5.10584">
        <ele>748.04</ele>
        <time>2021-11-17T12:24:36Z</time>
      </trkpt>
      <trkpt lat="44.81003" lon="5.10582">
        <ele>749</ele>
        <time>2021-11-17T12:24:53Z</time>
      </trkpt>
      <trkpt lat="44.8098" lon="5.1057">
        <ele>749</ele>
        <time>2021-11-17T12:25:12Z</time>
      </trkpt>
      <trkpt lat="44.80968" lon="5.1056">
        <ele>747.56</ele>
        <time>2021-11-17T12:25:29Z</time>
      </trkpt>
      <trkpt lat="44.80949" lon="5.10552">
        <ele>746.12</ele>
        <time>2021-11-17T12:25:47Z</time>
      </trkpt>
      <trkpt lat="44.8093" lon="5.10538">
        <ele>745.64</ele>
        <time>2021-11-17T12:26:05Z</time>
      </trkpt>
      <trkpt lat="44.80918" lon="5.10518">
        <ele>744.68</ele>
        <time>2021-11-17T12:26:23Z</time>
      </trkpt>
      <trkpt lat="44.80915" lon="5.10515">
        <ele>744.68</ele>
        <time>2021-11-17T12:26:25Z</time>
      </trkpt>
      <trkpt lat="44.80906" lon="5.10501">
        <ele>743.24</ele>
        <time>2021-11-17T12:26:39Z</time>
      </trkpt>
      <trkpt lat="44.80896" lon="5.10478">
        <ele>740.35</ele>
        <time>2021-11-17T12:26:59Z</time>
      </trkpt>
      <trkpt lat="44.8088" lon="5.10476">
        <ele>737.47</ele>
        <time>2021-11-17T12:27:17Z</time>
      </trkpt>
      <trkpt lat="44.80864" lon="5.10489">
        <ele>735.07</ele>
        <time>2021-11-17T12:27:37Z</time>
      </trkpt>
      <trkpt lat="44.80847" lon="5.10502">
        <ele>734.58</ele>
        <time>2021-11-17T12:27:58Z</time>
      </trkpt>
      <trkpt lat="44.80842" lon="5.10504">
        <ele>733.62</ele>
        <time>2021-11-17T12:28:13Z</time>
      </trkpt>
      <trkpt lat="44.8084" lon="5.10502">
        <ele>733.14</ele>
        <time>2021-11-17T12:28:23Z</time>
      </trkpt>
      <trkpt lat="44.80844" lon="5.10506">
        <ele>733.14</ele>
        <time>2021-11-17T12:28:28Z</time>
      </trkpt>
      <trkpt lat="44.80845" lon="5.10507">
        <ele>733.14</ele>
        <time>2021-11-17T12:28:29Z</time>
      </trkpt>
      <trkpt lat="44.80846" lon="5.10508">
        <ele>733.14</ele>
        <time>2021-11-17T12:28:30Z</time>
      </trkpt>
      <trkpt lat="44.80847" lon="5.10509">
        <ele>733.14</ele>
        <time>2021-11-17T12:28:31Z</time>
      </trkpt>
      <trkpt lat="44.80848" lon="5.1051">
        <ele>733.14</ele>
        <time>2021-11-17T12:28:32Z</time>
      </trkpt>
      <trkpt lat="44.8086" lon="5.10538">
        <ele>734.58</ele>
        <time>2021-11-17T12:28:55Z</time>
      </trkpt>
      <trkpt lat="44.80858" lon="5.10547">
        <ele>735.07</ele>
        <time>2021-11-17T12:28:59Z</time>
      </trkpt>
      <trkpt lat="44.80857" lon="5.10549">
        <ele>735.55</ele>
        <time>2021-11-17T12:29:00Z</time>
      </trkpt>
      <trkpt lat="44.8085" lon="5.10563">
        <ele>736.99</ele>
        <time>2021-11-17T12:29:10Z</time>
      </trkpt>
      <trkpt lat="44.80841" lon="5.10584">
        <ele>738.43</ele>
        <time>2021-11-17T12:29:27Z</time>
      </trkpt>
      <trkpt lat="44.80836" lon="5.10611">
        <ele>738.43</ele>
        <time>2021-11-17T12:29:45Z</time>
      </trkpt>
      <trkpt lat="44.80831" lon="5.10641">
        <ele>740.35</ele>
        <time>2021-11-17T12:30:07Z</time>
      </trkpt>
      <trkpt lat="44.80828" lon="5.10657">
        <ele>741.31</ele>
        <time>2021-11-17T12:30:19Z</time>
      </trkpt>
      <trkpt lat="44.80821" lon="5.10675">
        <ele>742.76</ele>
        <time>2021-11-17T12:30:34Z</time>
      </trkpt>
      <trkpt lat="44.8082" lon="5.10677">
        <ele>742.76</ele>
        <time>2021-11-17T12:30:35Z</time>
      </trkpt>
      <trkpt lat="44.80819" lon="5.10678">
        <ele>742.76</ele>
        <time>2021-11-17T12:30:36Z</time>
      </trkpt>
      <trkpt lat="44.80818" lon="5.1068">
        <ele>742.76</ele>
        <time>2021-11-17T12:30:37Z</time>
      </trkpt>
      <trkpt lat="44.80817" lon="5.10681">
        <ele>742.76</ele>
        <time>2021-11-17T12:30:38Z</time>
      </trkpt>
      <trkpt lat="44.80812" lon="5.10692">
        <ele>743.24</ele>
        <time>2021-11-17T12:30:46Z</time>
      </trkpt>
      <trkpt lat="44.80812" lon="5.10693">
        <ele>743.24</ele>
        <time>2021-11-17T12:30:47Z</time>
      </trkpt>
      <trkpt lat="44.80811" lon="5.10695">
        <ele>743.24</ele>
        <time>2021-11-17T12:30:48Z</time>
      </trkpt>
      <trkpt lat="44.80803" lon="5.10711">
        <ele>743.24</ele>
        <time>2021-11-17T12:31:00Z</time>
      </trkpt>
      <trkpt lat="44.80803" lon="5.10713">
        <ele>743.24</ele>
        <time>2021-11-17T12:31:01Z</time>
      </trkpt>
      <trkpt lat="44.80794" lon="5.10736">
        <ele>744.2</ele>
        <time>2021-11-17T12:31:19Z</time>
      </trkpt>
      <trkpt lat="44.80782" lon="5.10757">
        <ele>745.16</ele>
        <time>2021-11-17T12:31:38Z</time>
      </trkpt>
      <trkpt lat="44.80769" lon="5.10776">
        <ele>747.56</ele>
        <time>2021-11-17T12:32:01Z</time>
      </trkpt>
      <trkpt lat="44.80766" lon="5.10782">
        <ele>747.56</ele>
        <time>2021-11-17T12:32:15Z</time>
      </trkpt>
      <trkpt lat="44.80765" lon="5.10786">
        <ele>747.56</ele>
        <time>2021-11-17T12:32:36Z</time>
      </trkpt>
      <trkpt lat="44.80763" lon="5.10788">
        <ele>747.56</ele>
        <time>2021-11-17T12:32:39Z</time>
      </trkpt>
      <trkpt lat="44.80762" lon="5.10789">
        <ele>747.56</ele>
        <time>2021-11-17T12:32:40Z</time>
      </trkpt>
      <trkpt lat="44.80761" lon="5.1079">
        <ele>747.56</ele>
        <time>2021-11-17T12:32:41Z</time>
      </trkpt>
      <trkpt lat="44.80759" lon="5.10792">
        <ele>747.56</ele>
        <time>2021-11-17T12:32:43Z</time>
      </trkpt>
      <trkpt lat="44.80758" lon="5.10793">
        <ele>747.56</ele>
        <time>2021-11-17T12:32:44Z</time>
      </trkpt>
      <trkpt lat="44.80756" lon="5.10795">
        <ele>747.56</ele>
        <time>2021-11-17T12:32:47Z</time>
      </trkpt>
      <trkpt lat="44.80755" lon="5.10795">
        <ele>747.56</ele>
        <time>2021-11-17T12:32:48Z</time>
      </trkpt>
      <trkpt lat="44.80738" lon="5.10808">
        <ele>749</ele>
        <time>2021-11-17T12:33:06Z</time>
      </trkpt>
      <trkpt lat="44.80713" lon="5.10814">
        <ele>749.49</ele>
        <time>2021-11-17T12:33:28Z</time>
      </trkpt>
      <trkpt lat="44.80706" lon="5.1082">
        <ele>749</ele>
        <time>2021-11-17T12:33:36Z</time>
      </trkpt>
      <trkpt lat="44.80705" lon="5.1082">
        <ele>749</ele>
        <time>2021-11-17T12:33:37Z</time>
      </trkpt>
      <trkpt lat="44.80704" lon="5.1082">
        <ele>749</ele>
        <time>2021-11-17T12:33:38Z</time>
      </trkpt>
      <trkpt lat="44.80703" lon="5.1082">
        <ele>749</ele>
        <time>2021-11-17T12:33:39Z</time>
      </trkpt>
      <trkpt lat="44.80702" lon="5.1082">
        <ele>749</ele>
        <time>2021-11-17T12:33:40Z</time>
      </trkpt>
      <trkpt lat="44.80687" lon="5.10822">
        <ele>748.04</ele>
        <time>2021-11-17T12:33:59Z</time>
      </trkpt>
      <trkpt lat="44.80683" lon="5.10822">
        <ele>747.56</ele>
        <time>2021-11-17T12:34:15Z</time>
      </trkpt>
      <trkpt lat="44.80679" lon="5.1082">
        <ele>747.56</ele>
        <time>2021-11-17T12:34:21Z</time>
      </trkpt>
      <trkpt lat="44.80677" lon="5.10821">
        <ele>747.56</ele>
        <time>2021-11-17T12:34:23Z</time>
      </trkpt>
      <trkpt lat="44.80675" lon="5.10821">
        <ele>747.56</ele>
        <time>2021-11-17T12:34:24Z</time>
      </trkpt>
      <trkpt lat="44.80652" lon="5.10823">
        <ele>747.56</ele>
        <time>2021-11-17T12:34:46Z</time>
      </trkpt>
      <trkpt lat="44.80631" lon="5.10817">
        <ele>746.12</ele>
        <time>2021-11-17T12:35:06Z</time>
      </trkpt>
      <trkpt lat="44.80611" lon="5.10816">
        <ele>744.68</ele>
        <time>2021-11-17T12:35:26Z</time>
      </trkpt>
      <trkpt lat="44.80594" lon="5.10814">
        <ele>743.24</ele>
        <time>2021-11-17T12:35:44Z</time>
      </trkpt>
      <trkpt lat="44.80577" lon="5.10811">
        <ele>742.28</ele>
        <time>2021-11-17T12:36:03Z</time>
      </trkpt>
      <trkpt lat="44.80556" lon="5.10807">
        <ele>740.83</ele>
        <time>2021-11-17T12:36:24Z</time>
      </trkpt>
      <trkpt lat="44.80539" lon="5.10804">
        <ele>739.39</ele>
        <time>2021-11-17T12:36:41Z</time>
      </trkpt>
      <trkpt lat="44.80518" lon="5.10801">
        <ele>737.47</ele>
        <time>2021-11-17T12:37:00Z</time>
      </trkpt>
      <trkpt lat="44.80498" lon="5.10799">
        <ele>736.51</ele>
        <time>2021-11-17T12:37:20Z</time>
      </trkpt>
      <trkpt lat="44.80478" lon="5.10799">
        <ele>735.07</ele>
        <time>2021-11-17T12:37:39Z</time>
      </trkpt>
      <trkpt lat="44.80457" lon="5.108">
        <ele>734.1</ele>
        <time>2021-11-17T12:37:57Z</time>
      </trkpt>
      <trkpt lat="44.8044" lon="5.10799">
        <ele>733.14</ele>
        <time>2021-11-17T12:38:14Z</time>
      </trkpt>
      <trkpt lat="44.8042" lon="5.10799">
        <ele>732.18</ele>
        <time>2021-11-17T12:38:32Z</time>
      </trkpt>
      <trkpt lat="44.80402" lon="5.108">
        <ele>732.66</ele>
        <time>2021-11-17T12:38:50Z</time>
      </trkpt>
      <trkpt lat="44.8039" lon="5.10799">
        <ele>732.18</ele>
        <time>2021-11-17T12:39:02Z</time>
      </trkpt>
      <trkpt lat="44.80388" lon="5.10799">
        <ele>732.18</ele>
        <time>2021-11-17T12:39:03Z</time>
      </trkpt>
      <trkpt lat="44.80379" lon="5.10796">
        <ele>731.7</ele>
        <time>2021-11-17T12:39:12Z</time>
      </trkpt>
      <trkpt lat="44.80375" lon="5.10794">
        <ele>731.22</ele>
        <time>2021-11-17T12:39:17Z</time>
      </trkpt>
      <trkpt lat="44.80374" lon="5.10794">
        <ele>731.22</ele>
        <time>2021-11-17T12:39:18Z</time>
      </trkpt>
      <trkpt lat="44.8036" lon="5.10784">
        <ele>731.22</ele>
        <time>2021-11-17T12:39:34Z</time>
      </trkpt>
      <trkpt lat="44.80354" lon="5.10778">
        <ele>731.22</ele>
        <time>2021-11-17T12:39:41Z</time>
      </trkpt>
      <trkpt lat="44.80346" lon="5.10769">
        <ele>731.22</ele>
        <time>2021-11-17T12:39:50Z</time>
      </trkpt>
      <trkpt lat="44.80345" lon="5.10767">
        <ele>731.22</ele>
        <time>2021-11-17T12:39:51Z</time>
      </trkpt>
      <trkpt lat="44.80332" lon="5.1075">
        <ele>731.22</ele>
        <time>2021-11-17T12:40:09Z</time>
      </trkpt>
      <trkpt lat="44.80318" lon="5.10736">
        <ele>732.18</ele>
        <time>2021-11-17T12:40:23Z</time>
      </trkpt>
      <trkpt lat="44.80317" lon="5.10735">
        <ele>732.18</ele>
        <time>2021-11-17T12:40:24Z</time>
      </trkpt>
      <trkpt lat="44.80316" lon="5.10734">
        <ele>732.18</ele>
        <time>2021-11-17T12:40:25Z</time>
      </trkpt>
      <trkpt lat="44.803" lon="5.10723">
        <ele>732.66</ele>
        <time>2021-11-17T12:40:41Z</time>
      </trkpt>
      <trkpt lat="44.8028" lon="5.10715">
        <ele>733.62</ele>
        <time>2021-11-17T12:41:00Z</time>
      </trkpt>
      <trkpt lat="44.80257" lon="5.107">
        <ele>734.58</ele>
        <time>2021-11-17T12:41:27Z</time>
      </trkpt>
      <trkpt lat="44.80225" lon="5.10689">
        <ele>734.58</ele>
        <time>2021-11-17T12:41:56Z</time>
      </trkpt>
      <trkpt lat="44.80204" lon="5.10686">
        <ele>735.07</ele>
        <time>2021-11-17T12:42:14Z</time>
      </trkpt>
      <trkpt lat="44.80189" lon="5.10684">
        <ele>735.07</ele>
        <time>2021-11-17T12:42:29Z</time>
      </trkpt>
      <trkpt lat="44.80186" lon="5.10683">
        <ele>735.07</ele>
        <time>2021-11-17T12:42:30Z</time>
      </trkpt>
      <trkpt lat="44.80167" lon="5.10679">
        <ele>734.58</ele>
        <time>2021-11-17T12:42:48Z</time>
      </trkpt>
      <trkpt lat="44.80147" lon="5.10678">
        <ele>735.55</ele>
        <time>2021-11-17T12:43:06Z</time>
      </trkpt>
      <trkpt lat="44.80146" lon="5.10678">
        <ele>735.55</ele>
        <time>2021-11-17T12:43:07Z</time>
      </trkpt>
      <trkpt lat="44.80145" lon="5.10678">
        <ele>735.55</ele>
        <time>2021-11-17T12:43:08Z</time>
      </trkpt>
      <trkpt lat="44.80129" lon="5.10678">
        <ele>735.55</ele>
        <time>2021-11-17T12:43:21Z</time>
      </trkpt>
      <trkpt lat="44.80126" lon="5.10678">
        <ele>735.55</ele>
        <time>2021-11-17T12:43:23Z</time>
      </trkpt>
      <trkpt lat="44.8011" lon="5.1068">
        <ele>736.03</ele>
        <time>2021-11-17T12:43:41Z</time>
      </trkpt>
      <trkpt lat="44.80089" lon="5.10685">
        <ele>736.99</ele>
        <time>2021-11-17T12:44:01Z</time>
      </trkpt>
      <trkpt lat="44.80084" lon="5.10687">
        <ele>736.99</ele>
        <time>2021-11-17T12:44:04Z</time>
      </trkpt>
      <trkpt lat="44.80068" lon="5.10689">
        <ele>736.99</ele>
        <time>2021-11-17T12:44:18Z</time>
      </trkpt>
      <trkpt lat="44.80037" lon="5.10697">
        <ele>736.99</ele>
        <time>2021-11-17T12:44:49Z</time>
      </trkpt>
      <trkpt lat="44.80019" lon="5.107">
        <ele>738.91</ele>
        <time>2021-11-17T12:45:07Z</time>
      </trkpt>
      <trkpt lat="44.79998" lon="5.10704">
        <ele>739.39</ele>
        <time>2021-11-17T12:45:29Z</time>
      </trkpt>
      <trkpt lat="44.79976" lon="5.1071">
        <ele>741.31</ele>
        <time>2021-11-17T12:45:51Z</time>
      </trkpt>
      <trkpt lat="44.7996" lon="5.10711">
        <ele>743.24</ele>
        <time>2021-11-17T12:46:08Z</time>
      </trkpt>
      <trkpt lat="44.79947" lon="5.10709">
        <ele>743.24</ele>
        <time>2021-11-17T12:46:23Z</time>
      </trkpt>
      <trkpt lat="44.79929" lon="5.10706">
        <ele>743.24</ele>
        <time>2021-11-17T12:46:41Z</time>
      </trkpt>
      <trkpt lat="44.79915" lon="5.10702">
        <ele>744.2</ele>
        <time>2021-11-17T12:46:59Z</time>
      </trkpt>
      <trkpt lat="44.79897" lon="5.107">
        <ele>744.68</ele>
        <time>2021-11-17T12:47:20Z</time>
      </trkpt>
      <trkpt lat="44.7988" lon="5.10694">
        <ele>745.16</ele>
        <time>2021-11-17T12:47:37Z</time>
      </trkpt>
      <trkpt lat="44.79863" lon="5.10691">
        <ele>745.64</ele>
        <time>2021-11-17T12:47:57Z</time>
      </trkpt>
      <trkpt lat="44.79848" lon="5.10685">
        <ele>745.64</ele>
        <time>2021-11-17T12:48:12Z</time>
      </trkpt>
      <trkpt lat="44.79835" lon="5.10684">
        <ele>745.16</ele>
        <time>2021-11-17T12:48:24Z</time>
      </trkpt>
      <trkpt lat="44.79818" lon="5.10686">
        <ele>745.64</ele>
        <time>2021-11-17T12:48:41Z</time>
      </trkpt>
      <trkpt lat="44.79814" lon="5.10687">
        <ele>745.16</ele>
        <time>2021-11-17T12:48:45Z</time>
      </trkpt>
      <trkpt lat="44.79802" lon="5.10687">
        <ele>744.68</ele>
        <time>2021-11-17T12:48:56Z</time>
      </trkpt>
      <trkpt lat="44.79792" lon="5.10686">
        <ele>745.16</ele>
        <time>2021-11-17T12:49:08Z</time>
      </trkpt>
      <trkpt lat="44.79785" lon="5.10684">
        <ele>745.64</ele>
        <time>2021-11-17T12:49:15Z</time>
      </trkpt>
      <trkpt lat="44.79784" lon="5.10684">
        <ele>745.64</ele>
        <time>2021-11-17T12:49:16Z</time>
      </trkpt>
      <trkpt lat="44.79764" lon="5.10671">
        <ele>745.64</ele>
        <time>2021-11-17T12:49:35Z</time>
      </trkpt>
      <trkpt lat="44.79753" lon="5.10666">
        <ele>744.68</ele>
        <time>2021-11-17T12:49:45Z</time>
      </trkpt>
      <trkpt lat="44.79735" lon="5.10659">
        <ele>745.16</ele>
        <time>2021-11-17T12:50:04Z</time>
      </trkpt>
      <trkpt lat="44.79717" lon="5.10652">
        <ele>745.16</ele>
        <time>2021-11-17T12:50:21Z</time>
      </trkpt>
      <trkpt lat="44.79703" lon="5.10644">
        <ele>745.16</ele>
        <time>2021-11-17T12:50:37Z</time>
      </trkpt>
      <trkpt lat="44.79696" lon="5.1064">
        <ele>745.16</ele>
        <time>2021-11-17T12:50:45Z</time>
      </trkpt>
      <trkpt lat="44.79695" lon="5.10639">
        <ele>745.16</ele>
        <time>2021-11-17T12:50:46Z</time>
      </trkpt>
      <trkpt lat="44.79679" lon="5.10627">
        <ele>745.16</ele>
        <time>2021-11-17T12:51:03Z</time>
      </trkpt>
      <trkpt lat="44.79662" lon="5.10615">
        <ele>745.64</ele>
        <time>2021-11-17T12:51:21Z</time>
      </trkpt>
      <trkpt lat="44.79648" lon="5.10602">
        <ele>745.64</ele>
        <time>2021-11-17T12:51:35Z</time>
      </trkpt>
      <trkpt lat="44.79631" lon="5.10591">
        <ele>745.64</ele>
        <time>2021-11-17T12:51:53Z</time>
      </trkpt>
      <trkpt lat="44.79613" lon="5.10586">
        <ele>744.2</ele>
        <time>2021-11-17T12:52:11Z</time>
      </trkpt>
      <trkpt lat="44.79597" lon="5.10575">
        <ele>743.24</ele>
        <time>2021-11-17T12:52:29Z</time>
      </trkpt>
      <trkpt lat="44.79583" lon="5.1057">
        <ele>741.31</ele>
        <time>2021-11-17T12:52:46Z</time>
      </trkpt>
      <trkpt lat="44.7958" lon="5.1057">
        <ele>741.31</ele>
        <time>2021-11-17T12:52:48Z</time>
      </trkpt>
      <trkpt lat="44.7957" lon="5.10567">
        <ele>738.91</ele>
        <time>2021-11-17T12:53:05Z</time>
      </trkpt>
      <trkpt lat="44.7957" lon="5.10567">
        <ele>737.47</ele>
        <time>2021-11-17T12:53:21Z</time>
      </trkpt>
      <trkpt lat="44.7957" lon="5.10567">
        <ele>737.95</ele>
        <time>2021-11-17T12:53:54Z</time>
      </trkpt>
      <trkpt lat="44.79569" lon="5.10568">
        <ele>738.43</ele>
        <time>2021-11-17T12:54:07Z</time>
      </trkpt>
      <trkpt lat="44.79568" lon="5.10568">
        <ele>738.43</ele>
        <time>2021-11-17T12:54:28Z</time>
      </trkpt>
      <trkpt lat="44.79568" lon="5.10568">
        <ele>738.43</ele>
        <time>2021-11-17T12:54:48Z</time>
      </trkpt>
      <trkpt lat="44.79563" lon="5.10568">
        <ele>738.43</ele>
        <time>2021-11-17T12:55:12Z</time>
      </trkpt>
      <trkpt lat="44.79557" lon="5.10568">
        <ele>738.43</ele>
        <time>2021-11-17T12:55:27Z</time>
      </trkpt>
      <trkpt lat="44.79554" lon="5.10567">
        <ele>736.99</ele>
        <time>2021-11-17T12:55:39Z</time>
      </trkpt>
      <trkpt lat="44.79546" lon="5.10571">
        <ele>736.51</ele>
        <time>2021-11-17T12:55:59Z</time>
      </trkpt>
      <trkpt lat="44.7954" lon="5.10575">
        <ele>735.55</ele>
        <time>2021-11-17T12:56:26Z</time>
      </trkpt>
      <trkpt lat="44.79538" lon="5.10575">
        <ele>736.03</ele>
        <time>2021-11-17T12:56:48Z</time>
      </trkpt>
      <trkpt lat="44.79534" lon="5.10577">
        <ele>734.58</ele>
        <time>2021-11-17T12:57:13Z</time>
      </trkpt>
      <trkpt lat="44.79527" lon="5.10576">
        <ele>734.58</ele>
        <time>2021-11-17T12:57:28Z</time>
      </trkpt>
      <trkpt lat="44.79526" lon="5.10575">
        <ele>734.58</ele>
        <time>2021-11-17T12:57:29Z</time>
      </trkpt>
      <trkpt lat="44.79517" lon="5.10572">
        <ele>734.58</ele>
        <time>2021-11-17T12:57:44Z</time>
      </trkpt>
      <trkpt lat="44.79511" lon="5.10572">
        <ele>734.58</ele>
        <time>2021-11-17T12:57:51Z</time>
      </trkpt>
      <trkpt lat="44.79509" lon="5.10572">
        <ele>734.58</ele>
        <time>2021-11-17T12:57:52Z</time>
      </trkpt>
      <trkpt lat="44.79508" lon="5.10572">
        <ele>734.58</ele>
        <time>2021-11-17T12:57:53Z</time>
      </trkpt>
      <trkpt lat="44.79493" lon="5.1057">
        <ele>734.1</ele>
        <time>2021-11-17T12:58:10Z</time>
      </trkpt>
      <trkpt lat="44.79492" lon="5.10569">
        <ele>735.07</ele>
        <time>2021-11-17T12:58:43Z</time>
      </trkpt>
      <trkpt lat="44.79491" lon="5.10568">
        <ele>735.07</ele>
        <time>2021-11-17T12:59:16Z</time>
      </trkpt>
      <trkpt lat="44.7949" lon="5.10568">
        <ele>735.55</ele>
        <time>2021-11-17T12:59:51Z</time>
      </trkpt>
      <trkpt lat="44.7949" lon="5.10568">
        <ele>735.55</ele>
        <time>2021-11-17T13:00:17Z</time>
      </trkpt>
      <trkpt lat="44.7949" lon="5.10567">
        <ele>735.55</ele>
        <time>2021-11-17T13:00:59Z</time>
      </trkpt>
      <trkpt lat="44.79489" lon="5.10566">
        <ele>735.55</ele>
        <time>2021-11-17T13:01:30Z</time>
      </trkpt>
      <trkpt lat="44.79488" lon="5.10564">
        <ele>735.55</ele>
        <time>2021-11-17T13:01:51Z</time>
      </trkpt>
      <trkpt lat="44.79486" lon="5.10559">
        <ele>735.55</ele>
        <time>2021-11-17T13:02:08Z</time>
      </trkpt>
      <trkpt lat="44.79485" lon="5.10556">
        <ele>735.55</ele>
        <time>2021-11-17T13:02:32Z</time>
      </trkpt>
      <trkpt lat="44.79483" lon="5.10547">
        <ele>735.55</ele>
        <time>2021-11-17T13:02:53Z</time>
      </trkpt>
      <trkpt lat="44.79486" lon="5.10535">
        <ele>737.95</ele>
        <time>2021-11-17T13:03:09Z</time>
      </trkpt>
      <trkpt lat="44.79483" lon="5.10521">
        <ele>740.83</ele>
        <time>2021-11-17T13:03:28Z</time>
      </trkpt>
      <trkpt lat="44.79483" lon="5.10521">
        <ele>741.79</ele>
        <time>2021-11-17T13:03:51Z</time>
      </trkpt>
      <trkpt lat="44.79481" lon="5.10523">
        <ele>740.83</ele>
        <time>2021-11-17T13:04:06Z</time>
      </trkpt>
      <trkpt lat="44.79489" lon="5.1052">
        <ele>742.28</ele>
        <time>2021-11-17T13:04:25Z</time>
      </trkpt>
      <trkpt lat="44.79491" lon="5.10513">
        <ele>742.28</ele>
        <time>2021-11-17T13:04:43Z</time>
      </trkpt>
      <trkpt lat="44.79499" lon="5.10504">
        <ele>744.2</ele>
        <time>2021-11-17T13:05:01Z</time>
      </trkpt>
      <trkpt lat="44.79501" lon="5.105">
        <ele>744.2</ele>
        <time>2021-11-17T13:05:20Z</time>
      </trkpt>
      <trkpt lat="44.79504" lon="5.10497">
        <ele>744.68</ele>
        <time>2021-11-17T13:05:42Z</time>
      </trkpt>
      <trkpt lat="44.79504" lon="5.10497">
        <ele>744.2</ele>
        <time>2021-11-17T13:06:14Z</time>
      </trkpt>
      <trkpt lat="44.79504" lon="5.10497">
        <ele>744.2</ele>
        <time>2021-11-17T13:06:53Z</time>
      </trkpt>
      <trkpt lat="44.79505" lon="5.10499">
        <ele>744.2</ele>
        <time>2021-11-17T13:07:17Z</time>
      </trkpt>
      <trkpt lat="44.79508" lon="5.10499">
        <ele>744.2</ele>
        <time>2021-11-17T13:07:36Z</time>
      </trkpt>
      <trkpt lat="44.79508" lon="5.10498">
        <ele>744.2</ele>
        <time>2021-11-17T13:08:03Z</time>
      </trkpt>
      <trkpt lat="44.79508" lon="5.10498">
        <ele>744.2</ele>
        <time>2021-11-17T13:08:23Z</time>
      </trkpt>
      <trkpt lat="44.79508" lon="5.10499">
        <ele>744.2</ele>
        <time>2021-11-17T13:08:54Z</time>
      </trkpt>
      <trkpt lat="44.79508" lon="5.10499">
        <ele>744.2</ele>
        <time>2021-11-17T13:09:18Z</time>
      </trkpt>
      <trkpt lat="44.79507" lon="5.10506">
        <ele>744.2</ele>
        <time>2021-11-17T13:09:35Z</time>
      </trkpt>
      <trkpt lat="44.79502" lon="5.10517">
        <ele>744.2</ele>
        <time>2021-11-17T13:09:51Z</time>
      </trkpt>
      <trkpt lat="44.79496" lon="5.10519">
        <ele>744.2</ele>
        <time>2021-11-17T13:10:11Z</time>
      </trkpt>
      <trkpt lat="44.79489" lon="5.10526">
        <ele>744.2</ele>
        <time>2021-11-17T13:10:32Z</time>
      </trkpt>
      <trkpt lat="44.79488" lon="5.10526">
        <ele>744.2</ele>
        <time>2021-11-17T13:10:36Z</time>
      </trkpt>
      <trkpt lat="44.79484" lon="5.10529">
        <ele>744.2</ele>
        <time>2021-11-17T13:10:53Z</time>
      </trkpt>
      <trkpt lat="44.79484" lon="5.10537">
        <ele>744.2</ele>
        <time>2021-11-17T13:11:08Z</time>
      </trkpt>
      <trkpt lat="44.79484" lon="5.10539">
        <ele>739.87</ele>
        <time>2021-11-17T13:11:14Z</time>
      </trkpt>
      <trkpt lat="44.79484" lon="5.10539">
        <ele>739.87</ele>
        <time>2021-11-17T13:11:15Z</time>
      </trkpt>
      <trkpt lat="44.79484" lon="5.10546">
        <ele>738.43</ele>
        <time>2021-11-17T13:11:38Z</time>
      </trkpt>
      <trkpt lat="44.79482" lon="5.10551">
        <ele>737.47</ele>
        <time>2021-11-17T13:11:47Z</time>
      </trkpt>
      <trkpt lat="44.79479" lon="5.10553">
        <ele>734.58</ele>
        <time>2021-11-17T13:11:58Z</time>
      </trkpt>
      <trkpt lat="44.79479" lon="5.10553">
        <ele>733.62</ele>
        <time>2021-11-17T13:12:34Z</time>
      </trkpt>
      <trkpt lat="44.79478" lon="5.10552">
        <ele>730.74</ele>
        <time>2021-11-17T13:12:52Z</time>
      </trkpt>
      <trkpt lat="44.79478" lon="5.10552">
        <ele>733.62</ele>
        <time>2021-11-17T13:13:00Z</time>
      </trkpt>
      <trkpt lat="44.79478" lon="5.10552">
        <ele>732.18</ele>
        <time>2021-11-17T13:13:20Z</time>
      </trkpt>
      <trkpt lat="44.79478" lon="5.10552">
        <ele>734.1</ele>
        <time>2021-11-17T13:14:10Z</time>
      </trkpt>
      <trkpt lat="44.79474" lon="5.10534">
        <ele>733.14</ele>
        <time>2021-11-17T13:14:28Z</time>
      </trkpt>
      <trkpt lat="44.79475" lon="5.10523">
        <ele>732.18</ele>
        <time>2021-11-17T13:14:46Z</time>
      </trkpt>
      <trkpt lat="44.79474" lon="5.10515">
        <ele>731.22</ele>
        <time>2021-11-17T13:15:05Z</time>
      </trkpt>
      <trkpt lat="44.7947" lon="5.1051">
        <ele>728.82</ele>
        <time>2021-11-17T13:15:18Z</time>
      </trkpt>
      <trkpt lat="44.79472" lon="5.10498">
        <ele>726.41</ele>
        <time>2021-11-17T13:15:33Z</time>
      </trkpt>
      <trkpt lat="44.79476" lon="5.10497">
        <ele>724.49</ele>
        <time>2021-11-17T13:15:50Z</time>
      </trkpt>
      <trkpt lat="44.79482" lon="5.10493">
        <ele>722.57</ele>
        <time>2021-11-17T13:16:08Z</time>
      </trkpt>
      <trkpt lat="44.79487" lon="5.10481">
        <ele>719.2</ele>
        <time>2021-11-17T13:16:36Z</time>
      </trkpt>
      <trkpt lat="44.79492" lon="5.10474">
        <ele>716.32</ele>
        <time>2021-11-17T13:16:55Z</time>
      </trkpt>
      <trkpt lat="44.79498" lon="5.10467">
        <ele>713.44</ele>
        <time>2021-11-17T13:17:13Z</time>
      </trkpt>
      <trkpt lat="44.79494" lon="5.10464">
        <ele>711.03</ele>
        <time>2021-11-17T13:17:29Z</time>
      </trkpt>
      <trkpt lat="44.79492" lon="5.10466">
        <ele>710.07</ele>
        <time>2021-11-17T13:17:33Z</time>
      </trkpt>
      <trkpt lat="44.79479" lon="5.10467">
        <ele>707.19</ele>
        <time>2021-11-17T13:17:49Z</time>
      </trkpt>
      <trkpt lat="44.79467" lon="5.10466">
        <ele>704.3</ele>
        <time>2021-11-17T13:18:04Z</time>
      </trkpt>
      <trkpt lat="44.79466" lon="5.10465">
        <ele>704.3</ele>
        <time>2021-11-17T13:18:05Z</time>
      </trkpt>
      <trkpt lat="44.79465" lon="5.10466">
        <ele>703.82</ele>
        <time>2021-11-17T13:18:06Z</time>
      </trkpt>
      <trkpt lat="44.79453" lon="5.10474">
        <ele>702.38</ele>
        <time>2021-11-17T13:18:22Z</time>
      </trkpt>
      <trkpt lat="44.79446" lon="5.10477">
        <ele>701.42</ele>
        <time>2021-11-17T13:18:40Z</time>
      </trkpt>
      <trkpt lat="44.79436" lon="5.10484">
        <ele>700.94</ele>
        <time>2021-11-17T13:18:54Z</time>
      </trkpt>
      <trkpt lat="44.79435" lon="5.10484">
        <ele>700.94</ele>
        <time>2021-11-17T13:18:55Z</time>
      </trkpt>
      <trkpt lat="44.79434" lon="5.10495">
        <ele>700.46</ele>
        <time>2021-11-17T13:19:11Z</time>
      </trkpt>
      <trkpt lat="44.79426" lon="5.10499">
        <ele>698.05</ele>
        <time>2021-11-17T13:19:26Z</time>
      </trkpt>
      <trkpt lat="44.79419" lon="5.10507">
        <ele>695.17</ele>
        <time>2021-11-17T13:19:42Z</time>
      </trkpt>
      <trkpt lat="44.79413" lon="5.10514">
        <ele>692.29</ele>
        <time>2021-11-17T13:20:00Z</time>
      </trkpt>
      <trkpt lat="44.79411" lon="5.10526">
        <ele>688.92</ele>
        <time>2021-11-17T13:20:20Z</time>
      </trkpt>
      <trkpt lat="44.79411" lon="5.10539">
        <ele>686.52</ele>
        <time>2021-11-17T13:20:36Z</time>
      </trkpt>
      <trkpt lat="44.79418" lon="5.10552">
        <ele>683.63</ele>
        <time>2021-11-17T13:20:56Z</time>
      </trkpt>
      <trkpt lat="44.79421" lon="5.10565">
        <ele>680.27</ele>
        <time>2021-11-17T13:21:14Z</time>
      </trkpt>
      <trkpt lat="44.7942" lon="5.10575">
        <ele>677.39</ele>
        <time>2021-11-17T13:21:37Z</time>
      </trkpt>
      <trkpt lat="44.79414" lon="5.10576">
        <ele>674.98</ele>
        <time>2021-11-17T13:22:01Z</time>
      </trkpt>
      <trkpt lat="44.79411" lon="5.10577">
        <ele>672.58</ele>
        <time>2021-11-17T13:22:19Z</time>
      </trkpt>
      <trkpt lat="44.79411" lon="5.10579">
        <ele>671.62</ele>
        <time>2021-11-17T13:22:47Z</time>
      </trkpt>
      <trkpt lat="44.79412" lon="5.10584">
        <ele>671.14</ele>
        <time>2021-11-17T13:23:08Z</time>
      </trkpt>
      <trkpt lat="44.79419" lon="5.10595">
        <ele>668.73</ele>
        <time>2021-11-17T13:23:25Z</time>
      </trkpt>
      <trkpt lat="44.79426" lon="5.10607">
        <ele>666.33</ele>
        <time>2021-11-17T13:23:43Z</time>
      </trkpt>
      <trkpt lat="44.79429" lon="5.10617">
        <ele>662.97</ele>
        <time>2021-11-17T13:23:59Z</time>
      </trkpt>
      <trkpt lat="44.79435" lon="5.10631">
        <ele>660.08</ele>
        <time>2021-11-17T13:24:18Z</time>
      </trkpt>
      <trkpt lat="44.79437" lon="5.10638">
        <ele>657.68</ele>
        <time>2021-11-17T13:24:44Z</time>
      </trkpt>
      <trkpt lat="44.79442" lon="5.10642">
        <ele>656.24</ele>
        <time>2021-11-17T13:25:09Z</time>
      </trkpt>
      <trkpt lat="44.79448" lon="5.10652">
        <ele>654.8</ele>
        <time>2021-11-17T13:25:29Z</time>
      </trkpt>
      <trkpt lat="44.7945" lon="5.10655">
        <ele>653.35</ele>
        <time>2021-11-17T13:25:58Z</time>
      </trkpt>
      <trkpt lat="44.7945" lon="5.10656">
        <ele>652.87</ele>
        <time>2021-11-17T13:26:30Z</time>
      </trkpt>
      <trkpt lat="44.79447" lon="5.1065">
        <ele>654.31</ele>
        <time>2021-11-17T13:27:03Z</time>
      </trkpt>
      <trkpt lat="44.79446" lon="5.10644">
        <ele>655.28</ele>
        <time>2021-11-17T13:27:29Z</time>
      </trkpt>
      <trkpt lat="44.79446" lon="5.10644">
        <ele>655.28</ele>
        <time>2021-11-17T13:28:01Z</time>
      </trkpt>
      <trkpt lat="44.79441" lon="5.10649">
        <ele>654.31</ele>
        <time>2021-11-17T13:28:27Z</time>
      </trkpt>
      <trkpt lat="44.79429" lon="5.10649">
        <ele>651.43</ele>
        <time>2021-11-17T13:28:41Z</time>
      </trkpt>
      <trkpt lat="44.79419" lon="5.10642">
        <ele>648.07</ele>
        <time>2021-11-17T13:28:56Z</time>
      </trkpt>
      <trkpt lat="44.79418" lon="5.1065">
        <ele>646.14</ele>
        <time>2021-11-17T13:29:08Z</time>
      </trkpt>
      <trkpt lat="44.79419" lon="5.1066">
        <ele>642.78</ele>
        <time>2021-11-17T13:29:19Z</time>
      </trkpt>
      <trkpt lat="44.79409" lon="5.10658">
        <ele>639.89</ele>
        <time>2021-11-17T13:29:32Z</time>
      </trkpt>
      <trkpt lat="44.79401" lon="5.10658">
        <ele>637.01</ele>
        <time>2021-11-17T13:29:43Z</time>
      </trkpt>
      <trkpt lat="44.79391" lon="5.10655">
        <ele>634.13</ele>
        <time>2021-11-17T13:29:55Z</time>
      </trkpt>
      <trkpt lat="44.7938" lon="5.10653">
        <ele>630.76</ele>
        <time>2021-11-17T13:30:07Z</time>
      </trkpt>
      <trkpt lat="44.79373" lon="5.10651">
        <ele>629.32</ele>
        <time>2021-11-17T13:30:15Z</time>
      </trkpt>
      <trkpt lat="44.79372" lon="5.10651">
        <ele>628.84</ele>
        <time>2021-11-17T13:30:16Z</time>
      </trkpt>
      <trkpt lat="44.7937" lon="5.10651">
        <ele>628.84</ele>
        <time>2021-11-17T13:30:17Z</time>
      </trkpt>
      <trkpt lat="44.79369" lon="5.10651">
        <ele>628.36</ele>
        <time>2021-11-17T13:30:18Z</time>
      </trkpt>
      <trkpt lat="44.7936" lon="5.10648">
        <ele>625.47</ele>
        <time>2021-11-17T13:30:35Z</time>
      </trkpt>
      <trkpt lat="44.79352" lon="5.10642">
        <ele>623.07</ele>
        <time>2021-11-17T13:30:52Z</time>
      </trkpt>
      <trkpt lat="44.79342" lon="5.10634">
        <ele>620.19</ele>
        <time>2021-11-17T13:31:13Z</time>
      </trkpt>
      <trkpt lat="44.79332" lon="5.1063">
        <ele>617.3</ele>
        <time>2021-11-17T13:31:30Z</time>
      </trkpt>
      <trkpt lat="44.79322" lon="5.10623">
        <ele>614.42</ele>
        <time>2021-11-17T13:31:44Z</time>
      </trkpt>
      <trkpt lat="44.79313" lon="5.10615">
        <ele>611.06</ele>
        <time>2021-11-17T13:32:05Z</time>
      </trkpt>
      <trkpt lat="44.79303" lon="5.10608">
        <ele>608.17</ele>
        <time>2021-11-17T13:32:25Z</time>
      </trkpt>
      <trkpt lat="44.79296" lon="5.10606">
        <ele>604.81</ele>
        <time>2021-11-17T13:32:42Z</time>
      </trkpt>
      <trkpt lat="44.79286" lon="5.10599">
        <ele>601.92</ele>
        <time>2021-11-17T13:32:58Z</time>
      </trkpt>
      <trkpt lat="44.79274" lon="5.10595">
        <ele>599.04</ele>
        <time>2021-11-17T13:33:14Z</time>
      </trkpt>
      <trkpt lat="44.79264" lon="5.10595">
        <ele>596.15</ele>
        <time>2021-11-17T13:33:31Z</time>
      </trkpt>
      <trkpt lat="44.7926" lon="5.10594">
        <ele>595.19</ele>
        <time>2021-11-17T13:33:45Z</time>
      </trkpt>
      <trkpt lat="44.79252" lon="5.10591">
        <ele>592.31</ele>
        <time>2021-11-17T13:34:02Z</time>
      </trkpt>
      <trkpt lat="44.79249" lon="5.10584">
        <ele>589.91</ele>
        <time>2021-11-17T13:34:22Z</time>
      </trkpt>
      <trkpt lat="44.79245" lon="5.10587">
        <ele>589.43</ele>
        <time>2021-11-17T13:34:40Z</time>
      </trkpt>
      <trkpt lat="44.79245" lon="5.10588">
        <ele>589.43</ele>
        <time>2021-11-17T13:34:41Z</time>
      </trkpt>
      <trkpt lat="44.79244" lon="5.1059">
        <ele>589.43</ele>
        <time>2021-11-17T13:34:42Z</time>
      </trkpt>
      <trkpt lat="44.79243" lon="5.10591">
        <ele>589.43</ele>
        <time>2021-11-17T13:34:43Z</time>
      </trkpt>
      <trkpt lat="44.79243" lon="5.10593">
        <ele>589.43</ele>
        <time>2021-11-17T13:34:44Z</time>
      </trkpt>
      <trkpt lat="44.79243" lon="5.10595">
        <ele>588.95</ele>
        <time>2021-11-17T13:34:45Z</time>
      </trkpt>
      <trkpt lat="44.79243" lon="5.10597">
        <ele>588.95</ele>
        <time>2021-11-17T13:34:46Z</time>
      </trkpt>
      <trkpt lat="44.79244" lon="5.10601">
        <ele>588.46</ele>
        <time>2021-11-17T13:34:50Z</time>
      </trkpt>
      <trkpt lat="44.79245" lon="5.10602">
        <ele>588.46</ele>
        <time>2021-11-17T13:34:51Z</time>
      </trkpt>
      <trkpt lat="44.79246" lon="5.10603">
        <ele>588.46</ele>
        <time>2021-11-17T13:34:52Z</time>
      </trkpt>
      <trkpt lat="44.7926" lon="5.1062">
        <ele>588.95</ele>
        <time>2021-11-17T13:35:12Z</time>
      </trkpt>
      <trkpt lat="44.79276" lon="5.10636">
        <ele>589.43</ele>
        <time>2021-11-17T13:35:29Z</time>
      </trkpt>
      <trkpt lat="44.79286" lon="5.10649">
        <ele>589.91</ele>
        <time>2021-11-17T13:35:47Z</time>
      </trkpt>
      <trkpt lat="44.79289" lon="5.10654">
        <ele>589.43</ele>
        <time>2021-11-17T13:36:04Z</time>
      </trkpt>
      <trkpt lat="44.79293" lon="5.1066">
        <ele>589.43</ele>
        <time>2021-11-17T13:36:24Z</time>
      </trkpt>
      <trkpt lat="44.79304" lon="5.10679">
        <ele>589.43</ele>
        <time>2021-11-17T13:36:43Z</time>
      </trkpt>
      <trkpt lat="44.79314" lon="5.10694">
        <ele>589.91</ele>
        <time>2021-11-17T13:37:00Z</time>
      </trkpt>
      <trkpt lat="44.79327" lon="5.10711">
        <ele>589.43</ele>
        <time>2021-11-17T13:37:20Z</time>
      </trkpt>
      <trkpt lat="44.79335" lon="5.10726">
        <ele>587.02</ele>
        <time>2021-11-17T13:37:37Z</time>
      </trkpt>
      <trkpt lat="44.79338" lon="5.10733">
        <ele>586.54</ele>
        <time>2021-11-17T13:37:43Z</time>
      </trkpt>
      <trkpt lat="44.7934" lon="5.10737">
        <ele>583.18</ele>
        <time>2021-11-17T13:37:46Z</time>
      </trkpt>
      <trkpt lat="44.79341" lon="5.1074">
        <ele>581.25</ele>
        <time>2021-11-17T13:37:49Z</time>
      </trkpt>
      <trkpt lat="44.79355" lon="5.10761">
        <ele>581.25</ele>
        <time>2021-11-17T13:38:10Z</time>
      </trkpt>
      <trkpt lat="44.79369" lon="5.10781">
        <ele>581.25</ele>
        <time>2021-11-17T13:38:29Z</time>
      </trkpt>
      <trkpt lat="44.79378" lon="5.10791">
        <ele>584.62</ele>
        <time>2021-11-17T13:38:41Z</time>
      </trkpt>
      <trkpt lat="44.79382" lon="5.10796">
        <ele>587.98</ele>
        <time>2021-11-17T13:38:47Z</time>
      </trkpt>
      <trkpt lat="44.79387" lon="5.10801">
        <ele>589.91</ele>
        <time>2021-11-17T13:38:53Z</time>
      </trkpt>
      <trkpt lat="44.7939" lon="5.10805">
        <ele>586.06</ele>
        <time>2021-11-17T13:38:58Z</time>
      </trkpt>
      <trkpt lat="44.79394" lon="5.1081">
        <ele>589.43</ele>
        <time>2021-11-17T13:39:07Z</time>
      </trkpt>
      <trkpt lat="44.79395" lon="5.1081">
        <ele>588.46</ele>
        <time>2021-11-17T13:39:29Z</time>
      </trkpt>
      <trkpt lat="44.79395" lon="5.10806">
        <ele>588.95</ele>
        <time>2021-11-17T13:39:51Z</time>
      </trkpt>
      <trkpt lat="44.79396" lon="5.10806">
        <ele>587.5</ele>
        <time>2021-11-17T13:40:23Z</time>
      </trkpt>
      <trkpt lat="44.79396" lon="5.10805">
        <ele>587.02</ele>
        <time>2021-11-17T13:41:01Z</time>
      </trkpt>
    </trkseg>
  </trk>
</gpx>